<?xml version='1.0' encoding='UTF-8'?>
<gpx xmlns="http://www.topografix.com/GPX/1/1" creator="www.balnam.be" version="1.1" xmlns:xsi="http://www.w3.org/2001/XMLSchema-instance" xsi:schemaLocation="http://www.topografix.com/GPX/1/1 http://www.topografix.com/GPX/1/1/gpx.xsd">
<trk>
<name>hmlcr1</name>
<cmt>q</cmt>
<desc>Carnières Chemin n°1 </desc>
<link href="https://chemins.be/carnieres/chemin/1"/><trkseg>
<trkpt lat="50.441150" lon="4.261689"><time>2026-05-02T23:15:56Z</time></trkpt>
<trkpt lat="50.440686" lon="4.260735"><time>2026-05-02T23:25:56Z</time></trkpt>
</trkseg>
</trk>
<trk>
<name>hmlcr10</name>
<cmt>r</cmt>
<desc>Carnières Chemin n°10 Chemin du Calvaire</desc>
<link href="https://chemins.be/carnieres/chemin/10"/><trkseg>
<trkpt lat="50.446676" lon="4.252787"><time>2026-05-02T23:15:56Z</time></trkpt>
<trkpt lat="50.447567" lon="4.253770"><time>2026-05-02T23:25:56Z</time></trkpt>
<trkpt lat="50.447585" lon="4.253911"><time>2026-05-02T23:35:56Z</time></trkpt>
</trkseg>
</trk>
<trk>
<name>hmlcr100</name>
<cmt>v</cmt>
<desc>Carnières Sentier n°100 </desc>
<link href="https://chemins.be/carnieres/sentier/100"/><trkseg>
<trkpt lat="50.443652" lon="4.249289"><time>2026-05-02T23:15:56Z</time></trkpt>
<trkpt lat="50.443653" lon="4.250232"><time>2026-05-02T23:25:56Z</time></trkpt>
</trkseg>
</trk>
<trk>
<name>hmlcr101</name>
<cmt>v</cmt>
<desc>Carnières Sentier n°101 Rue de la Gade</desc>
<link href="https://chemins.be/carnieres/sentier/101"/><trkseg>
<trkpt lat="50.432303" lon="4.238634"><time>2026-05-02T23:15:56Z</time></trkpt>
<trkpt lat="50.432627" lon="4.238450"><time>2026-05-02T23:25:56Z</time></trkpt>
</trkseg></trk>
<trk>
<name>hmlcr101</name>
<cmt>q</cmt>
<desc>Carnières Sentier n°101 Rue de la Gade</desc>
<link href="https://chemins.be/carnieres/sentier/101"/><trkseg>
<trkpt lat="50.432627" lon="4.238450"><time>2026-05-02T23:25:56Z</time></trkpt>
<trkpt lat="50.433796" lon="4.238757"><time>2026-05-02T23:35:56Z</time></trkpt>
<trkpt lat="50.434507" lon="4.239768"><time>2026-05-02T23:45:56Z</time></trkpt>
<trkpt lat="50.435291" lon="4.241202"><time>2026-05-02T23:55:56Z</time></trkpt>
<trkpt lat="50.435543" lon="4.241426"><time>2026-05-03T00:05:56Z</time></trkpt>
<trkpt lat="50.435732" lon="4.241989"><time>2026-05-03T00:15:56Z</time></trkpt>
</trkseg></trk>
<trk>
<name>hmlcr101</name>
<cmt>d</cmt>
<desc>Carnières Sentier n°101 Rue de la Gade</desc>
<link href="https://chemins.be/carnieres/sentier/101"/><trkseg>
<trkpt lat="50.435732" lon="4.241989"><time>2026-05-03T00:15:56Z</time></trkpt>
<trkpt lat="50.436146" lon="4.242368"><time>2026-05-03T00:25:56Z</time></trkpt>
<trkpt lat="50.437281" lon="4.244181"><time>2026-05-03T00:35:56Z</time></trkpt>
<trkpt lat="50.437605" lon="4.244321"><time>2026-05-03T00:45:56Z</time></trkpt>
<trkpt lat="50.439380" lon="4.247906"><time>2026-05-03T00:55:56Z</time></trkpt>
<trkpt lat="50.440577" lon="4.249451"><time>2026-05-03T01:05:56Z</time></trkpt>
<trkpt lat="50.443141" lon="4.251557"><time>2026-05-03T01:15:56Z</time></trkpt>
</trkseg>
</trk>
<trk>
<name>hmlcr102</name>
<cmt>q</cmt>
<desc>Carnières Sentier n°102 </desc>
<link href="https://chemins.be/carnieres/sentier/102"/><trkseg>
<trkpt lat="50.441368" lon="4.249295"><time>2026-05-02T23:15:56Z</time></trkpt>
<trkpt lat="50.440714" lon="4.251858"><time>2026-05-02T23:25:56Z</time></trkpt>
</trkseg>
</trk>
<trk>
<name>hmlcr103</name>
<cmt>v</cmt>
<desc>Carnières Sentier n°103 Ruelle des Champs Élysées / Sentier Balestin / Ruelle Balestin / Rue du Bois des Faulx</desc>
<link href="https://chemins.be/carnieres/sentier/103"/><trkseg>
<trkpt lat="50.450669" lon="4.245286"><time>2026-05-02T23:15:56Z</time></trkpt>
<trkpt lat="50.450570" lon="4.245104"><time>2026-05-02T23:25:56Z</time></trkpt>
<trkpt lat="50.450408" lon="4.244865"><time>2026-05-02T23:35:56Z</time></trkpt>
<trkpt lat="50.450039" lon="4.244373"><time>2026-05-02T23:45:56Z</time></trkpt>
<trkpt lat="50.449390" lon="4.243600"><time>2026-05-02T23:55:56Z</time></trkpt>
<trkpt lat="50.448535" lon="4.242631"><time>2026-05-03T00:05:56Z</time></trkpt>
<trkpt lat="50.448418" lon="4.242547"><time>2026-05-03T00:15:56Z</time></trkpt>
<trkpt lat="50.447897" lon="4.242295"><time>2026-05-03T00:25:56Z</time></trkpt>
<trkpt lat="50.447330" lon="4.242085"><time>2026-05-03T00:35:56Z</time></trkpt>
<trkpt lat="50.445819" lon="4.241540"><time>2026-05-03T00:45:56Z</time></trkpt>
<trkpt lat="50.445243" lon="4.241344"><time>2026-05-03T00:55:56Z</time></trkpt>
<trkpt lat="50.445064" lon="4.241218"><time>2026-05-03T01:05:56Z</time></trkpt>
<trkpt lat="50.444309" lon="4.241375"><time>2026-05-03T01:15:56Z</time></trkpt>
<trkpt lat="50.444030" lon="4.241207"><time>2026-05-03T01:25:56Z</time></trkpt>
<trkpt lat="50.443885" lon="4.240433"><time>2026-05-03T01:35:56Z</time></trkpt>
<trkpt lat="50.442653" lon="4.239817"><time>2026-05-03T01:45:56Z</time></trkpt>
</trkseg>
</trk>
<trk>
<name>hmlcr105</name>
<cmt>q</cmt>
<desc>Carnières Sentier n°105 </desc>
<link href="https://chemins.be/carnieres/sentier/105"/><trkseg>
<trkpt lat="50.436083" lon="4.242312"><time>2026-05-02T23:15:56Z</time></trkpt>
<trkpt lat="50.436388" lon="4.241565"><time>2026-05-02T23:25:56Z</time></trkpt>
</trkseg>
</trk>
<trk>
<name>hmlcr106</name>
<cmt>q</cmt>
<desc>Carnières Sentier n°106 </desc>
<link href="https://chemins.be/carnieres/sentier/106"/><trkseg>
<trkpt lat="50.432440" lon="4.240083"><time>2026-05-02T23:15:56Z</time></trkpt>
<trkpt lat="50.432602" lon="4.240111"><time>2026-05-02T23:25:56Z</time></trkpt>
<trkpt lat="50.432710" lon="4.240435"><time>2026-05-02T23:35:56Z</time></trkpt>
<trkpt lat="50.432701" lon="4.240787"><time>2026-05-02T23:45:56Z</time></trkpt>
<trkpt lat="50.433043" lon="4.240687"><time>2026-05-02T23:55:56Z</time></trkpt>
<trkpt lat="50.433241" lon="4.241067"><time>2026-05-03T00:05:56Z</time></trkpt>
<trkpt lat="50.433915" lon="4.240966"><time>2026-05-03T00:15:56Z</time></trkpt>
<trkpt lat="50.434051" lon="4.241712"><time>2026-05-03T00:25:56Z</time></trkpt>
</trkseg></trk>
<trk>
<name>hmlcr106</name>
<cmt>r</cmt>
<desc>Carnières Sentier n°106 </desc>
<link href="https://chemins.be/carnieres/sentier/106"/><trkseg>
<trkpt lat="50.434051" lon="4.241712"><time>2026-05-03T00:25:56Z</time></trkpt>
<trkpt lat="50.434617" lon="4.241626"><time>2026-05-03T00:35:56Z</time></trkpt>
</trkseg></trk>
<trk>
<name>hmlcr106</name>
<cmt>d</cmt>
<desc>Carnières Sentier n°106 </desc>
<link href="https://chemins.be/carnieres/sentier/106"/><trkseg>
<trkpt lat="50.434617" lon="4.241626"><time>2026-05-03T00:35:56Z</time></trkpt>
<trkpt lat="50.435688" lon="4.242074"><time>2026-05-03T00:45:56Z</time></trkpt>
</trkseg>
</trk>
<trk>
<name>hmlcr107</name>
<cmt>q</cmt>
<desc>Carnières Sentier n°107 </desc>
<link href="https://chemins.be/carnieres/sentier/107"/><trkseg>
<trkpt lat="50.432531" lon="4.241505"><time>2026-05-02T23:15:56Z</time></trkpt>
<trkpt lat="50.433151" lon="4.241222"><time>2026-05-02T23:25:56Z</time></trkpt>
<trkpt lat="50.433214" lon="4.241067"><time>2026-05-02T23:35:56Z</time></trkpt>
</trkseg>
</trk>
<trk>
<name>hmlcr108</name>
<cmt>v</cmt>
<desc>Carnières Chemin n°108 Rue de la Gade</desc>
<link href="https://chemins.be/carnieres/chemin/108"/><trkseg>
<trkpt lat="50.432636" lon="4.238478"><time>2026-05-02T23:15:56Z</time></trkpt>
<trkpt lat="50.433075" lon="4.236971"><time>2026-05-02T23:25:56Z</time></trkpt>
</trkseg>
</trk>
<trk>
<name>hmlcr109</name>
<cmt>v</cmt>
<desc>Carnières Sentier n°109 </desc>
<link href="https://chemins.be/carnieres/sentier/109"/><trkseg>
<trkpt lat="50.433048" lon="4.236915"><time>2026-05-02T23:15:56Z</time></trkpt>
<trkpt lat="50.434244" lon="4.237292"><time>2026-05-02T23:25:56Z</time></trkpt>
</trkseg>
</trk>
<trk>
<name>hmlcr110</name>
<cmt>v</cmt>
<desc>Carnières Sentier n°110 </desc>
<link href="https://chemins.be/carnieres/sentier/110"/><trkseg>
<trkpt lat="50.436208" lon="4.249265"><time>2026-05-02T23:15:56Z</time></trkpt>
<trkpt lat="50.439308" lon="4.247934"><time>2026-05-02T23:25:56Z</time></trkpt>
</trkseg>
</trk>
<trk>
<name>hmlcr111</name>
<cmt>q</cmt>
<desc>Carnières Sentier n°111 </desc>
<link href="https://chemins.be/carnieres/sentier/111"/><trkseg>
<trkpt lat="50.436144" lon="4.248350"><time>2026-05-02T23:15:56Z</time></trkpt>
<trkpt lat="50.436711" lon="4.249053"><time>2026-05-02T23:25:56Z</time></trkpt>
</trkseg></trk>
<trk>
<name>hmlcr111</name>
<cmt>v</cmt>
<desc>Carnières Sentier n°111 </desc>
<link href="https://chemins.be/carnieres/sentier/111"/><trkseg>
<trkpt lat="50.436711" lon="4.249053"><time>2026-05-02T23:25:56Z</time></trkpt>
<trkpt lat="50.437322" lon="4.248840"><time>2026-05-02T23:35:56Z</time></trkpt>
</trkseg></trk>
<trk>
<name>hmlcr111</name>
<cmt>q</cmt>
<desc>Carnières Sentier n°111 </desc>
<link href="https://chemins.be/carnieres/sentier/111"/><trkseg>
<trkpt lat="50.437322" lon="4.248840"><time>2026-05-02T23:35:56Z</time></trkpt>
<trkpt lat="50.438529" lon="4.250737"><time>2026-05-02T23:45:56Z</time></trkpt>
</trkseg>
</trk>
<trk>
<name>hmlcr113</name>
<cmt>q</cmt>
<desc>Carnières Sentier n°113 </desc>
<link href="https://chemins.be/carnieres/sentier/113"/><trkseg>
<trkpt lat="50.436524" lon="4.250742"><time>2026-05-02T23:15:56Z</time></trkpt>
<trkpt lat="50.436407" lon="4.250968"><time>2026-05-02T23:25:56Z</time></trkpt>
<trkpt lat="50.435958" lon="4.250997"><time>2026-05-02T23:35:56Z</time></trkpt>
<trkpt lat="50.435302" lon="4.251506"><time>2026-05-02T23:45:56Z</time></trkpt>
<trkpt lat="50.435014" lon="4.251211"><time>2026-05-02T23:55:56Z</time></trkpt>
<trkpt lat="50.434322" lon="4.251339"><time>2026-05-03T00:05:56Z</time></trkpt>
<trkpt lat="50.433432" lon="4.251749"><time>2026-05-03T00:15:56Z</time></trkpt>
<trkpt lat="50.432965" lon="4.252483"><time>2026-05-03T00:25:56Z</time></trkpt>
</trkseg>
</trk>
<trk>
<name>hmlcr114</name>
<cmt>v</cmt>
<desc>Carnières Sentier n°114 </desc>
<link href="https://chemins.be/carnieres/sentier/114"/><trkseg>
<trkpt lat="50.432953" lon="4.249302"><time>2026-05-02T23:15:56Z</time></trkpt>
<trkpt lat="50.432036" lon="4.249515"><time>2026-05-02T23:25:56Z</time></trkpt>
<trkpt lat="50.431237" lon="4.249869"><time>2026-05-02T23:35:56Z</time></trkpt>
<trkpt lat="50.429268" lon="4.249958"><time>2026-05-02T23:45:56Z</time></trkpt>
<trkpt lat="50.428226" lon="4.250960"><time>2026-05-02T23:55:56Z</time></trkpt>
</trkseg>
</trk>
<trk>
<name>hmlcr115</name>
<cmt>q</cmt>
<desc>Carnières Sentier n°115 </desc>
<link href="https://chemins.be/carnieres/sentier/115"/><trkseg>
<trkpt lat="50.437333" lon="4.250684"><time>2026-05-02T23:15:56Z</time></trkpt>
<trkpt lat="50.437720" lon="4.251260"><time>2026-05-02T23:25:56Z</time></trkpt>
<trkpt lat="50.438206" lon="4.251625"><time>2026-05-02T23:35:56Z</time></trkpt>
<trkpt lat="50.438449" lon="4.251737"><time>2026-05-02T23:45:56Z</time></trkpt>
<trkpt lat="50.438512" lon="4.252075"><time>2026-05-02T23:55:56Z</time></trkpt>
</trkseg>
</trk>
<trk>
<name>hmlcr115bis</name>
<cmt>q</cmt>
<desc>Carnières Sentier n°115bis </desc>
<link href="https://chemins.be/carnieres/sentier/115bis"/><trkseg>
<trkpt lat="50.438079" lon="4.250753"><time>2026-05-02T23:15:56Z</time></trkpt>
<trkpt lat="50.437927" lon="4.251457"><time>2026-05-02T23:25:56Z</time></trkpt>
</trkseg>
</trk>
<trk>
<name>hmlcr116</name>
<cmt>v</cmt>
<desc>Carnières Sentier n°116 Rue de la Vieile église Bas</desc>
<link href="https://chemins.be/carnieres/sentier/116"/><trkseg>
<trkpt lat="50.438494" lon="4.252244"><time>2026-05-02T23:15:56Z</time></trkpt>
<trkpt lat="50.438359" lon="4.252427"><time>2026-05-02T23:25:56Z</time></trkpt>
<trkpt lat="50.438297" lon="4.252596"><time>2026-05-02T23:35:56Z</time></trkpt>
<trkpt lat="50.438027" lon="4.252724"><time>2026-05-02T23:45:56Z</time></trkpt>
<trkpt lat="50.437920" lon="4.253019"><time>2026-05-02T23:55:56Z</time></trkpt>
</trkseg>
</trk>
<trk>
<name>hmlcr118</name>
<cmt>q</cmt>
<desc>Carnières Sentier n°118 </desc>
<link href="https://chemins.be/carnieres/sentier/118"/><trkseg>
<trkpt lat="50.432488" lon="4.251231"><time>2026-05-02T23:15:56Z</time></trkpt>
<trkpt lat="50.431805" lon="4.251965"><time>2026-05-02T23:25:56Z</time></trkpt>
</trkseg></trk>
<trk>
<name>hmlcr118</name>
<cmt>r</cmt>
<desc>Carnières Sentier n°118 </desc>
<link href="https://chemins.be/carnieres/sentier/118"/><trkseg>
<trkpt lat="50.431805" lon="4.251965"><time>2026-05-02T23:25:56Z</time></trkpt>
<trkpt lat="50.431499" lon="4.251937"><time>2026-05-02T23:35:56Z</time></trkpt>
</trkseg></trk>
<trk>
<name>hmlcr118</name>
<cmt>v</cmt>
<desc>Carnières Sentier n°118 </desc>
<link href="https://chemins.be/carnieres/sentier/118"/><trkseg>
<trkpt lat="50.431499" lon="4.251937"><time>2026-05-02T23:35:56Z</time></trkpt>
<trkpt lat="50.430231" lon="4.251110"><time>2026-05-02T23:45:56Z</time></trkpt>
<trkpt lat="50.429458" lon="4.251168"><time>2026-05-02T23:55:56Z</time></trkpt>
<trkpt lat="50.428281" lon="4.251678"><time>2026-05-03T00:05:56Z</time></trkpt>
<trkpt lat="50.427903" lon="4.251904"><time>2026-05-03T00:15:56Z</time></trkpt>
</trkseg>
</trk>
<trk>
<name>hmlcr119</name>
<cmt>v</cmt>
<desc>Carnières Sentier n°119 </desc>
<link href="https://chemins.be/carnieres/sentier/119"/><trkseg>
<trkpt lat="50.424403" lon="4.258428"><time>2026-05-02T23:15:56Z</time></trkpt>
<trkpt lat="50.427283" lon="4.257191"><time>2026-05-02T23:25:56Z</time></trkpt>
<trkpt lat="50.430386" lon="4.256676"><time>2026-05-02T23:35:56Z</time></trkpt>
<trkpt lat="50.433475" lon="4.256440"><time>2026-05-02T23:45:56Z</time></trkpt>
</trkseg>
</trk>
<trk>
<name>hmlcr12</name>
<cmt>r</cmt>
<desc>Carnières Chemin n°12 </desc>
<link href="https://chemins.be/carnieres/chemin/12"/><trkseg>
<trkpt lat="50.440235" lon="4.263334"><time>2026-05-02T23:15:56Z</time></trkpt>
<trkpt lat="50.439577" lon="4.264302"><time>2026-05-02T23:25:56Z</time></trkpt>
</trkseg></trk>
<trk>
<name>hmlcr12</name>
<cmt>v</cmt>
<desc>Carnières Chemin n°12 </desc>
<link href="https://chemins.be/carnieres/chemin/12"/><trkseg>
<trkpt lat="50.439577" lon="4.264302"><time>2026-05-02T23:25:56Z</time></trkpt>
<trkpt lat="50.439018" lon="4.265051"><time>2026-05-02T23:35:56Z</time></trkpt>
<trkpt lat="50.437930" lon="4.266052"><time>2026-05-02T23:45:56Z</time></trkpt>
<trkpt lat="50.437558" lon="4.266790"><time>2026-05-02T23:55:56Z</time></trkpt>
<trkpt lat="50.437307" lon="4.268232"><time>2026-05-03T00:05:56Z</time></trkpt>
</trkseg>
</trk>
<trk>
<name>hmlcr120</name>
<cmt>q</cmt>
<desc>Carnières Sentier n°120 </desc>
<link href="https://chemins.be/carnieres/sentier/120"/><trkseg>
<trkpt lat="50.428349" lon="4.257213"><time>2026-05-02T23:15:56Z</time></trkpt>
<trkpt lat="50.426687" lon="4.262045"><time>2026-05-02T23:25:56Z</time></trkpt>
</trkseg>
</trk>
<trk>
<name>hmlcr121</name>
<cmt>q</cmt>
<desc>Carnières Sentier n°121 Rue d'Anderlues</desc>
<link href="https://chemins.be/carnieres/sentier/121"/><trkseg>
<trkpt lat="50.431469" lon="4.260104"><time>2026-05-02T23:15:56Z</time></trkpt>
<trkpt lat="50.430212" lon="4.260287"><time>2026-05-02T23:25:56Z</time></trkpt>
<trkpt lat="50.429412" lon="4.260651"><time>2026-05-02T23:35:56Z</time></trkpt>
<trkpt lat="50.429022" lon="4.261070"><time>2026-05-02T23:45:56Z</time></trkpt>
</trkseg>
</trk>
<trk>
<name>hmlcr122</name>
<cmt>v</cmt>
<desc>Carnières Sentier n°122 </desc>
<link href="https://chemins.be/carnieres/sentier/122"/><trkseg>
<trkpt lat="50.434023" lon="4.258518"><time>2026-05-02T23:15:56Z</time></trkpt>
<trkpt lat="50.434652" lon="4.258418"><time>2026-05-02T23:25:56Z</time></trkpt>
<trkpt lat="50.434643" lon="4.257785"><time>2026-05-02T23:35:56Z</time></trkpt>
<trkpt lat="50.435325" lon="4.256503"><time>2026-05-02T23:45:56Z</time></trkpt>
<trkpt lat="50.435791" lon="4.255727"><time>2026-05-02T23:55:56Z</time></trkpt>
<trkpt lat="50.436218" lon="4.254988"><time>2026-05-03T00:05:56Z</time></trkpt>
<trkpt lat="50.436432" lon="4.254634"><time>2026-05-03T00:15:56Z</time></trkpt>
</trkseg>
</trk>
<trk>
<name>hmlcr123</name>
<cmt>v</cmt>
<desc>Carnières Sentier n°123 </desc>
<link href="https://chemins.be/carnieres/sentier/123"/><trkseg>
<trkpt lat="50.431433" lon="4.252447"><time>2026-05-02T23:15:56Z</time></trkpt>
<trkpt lat="50.432100" lon="4.252774"><time>2026-05-02T23:25:56Z</time></trkpt>
</trkseg></trk>
<trk>
<name>hmlcr123</name>
<cmt>q</cmt>
<desc>Carnières Sentier n°123 </desc>
<link href="https://chemins.be/carnieres/sentier/123"/><trkseg>
<trkpt lat="50.432100" lon="4.252774"><time>2026-05-02T23:25:56Z</time></trkpt>
<trkpt lat="50.432650" lon="4.252667"><time>2026-05-02T23:35:56Z</time></trkpt>
</trkseg>
</trk>
<trk>
<name>hmlcr125</name>
<cmt>v</cmt>
<desc>Carnières Sentier n°125 </desc>
<link href="https://chemins.be/carnieres/sentier/125"/><trkseg>
<trkpt lat="50.432268" lon="4.239479"><time>2026-05-02T23:15:56Z</time></trkpt>
<trkpt lat="50.431675" lon="4.239832"><time>2026-05-02T23:25:56Z</time></trkpt>
</trkseg>
</trk>
<trk>
<name>hmlcr126</name>
<cmt>q</cmt>
<desc>Carnières Sentier n°126 </desc>
<link href="https://chemins.be/carnieres/sentier/126"/><trkseg>
<trkpt lat="50.432526" lon="4.253779"><time>2026-05-02T23:15:56Z</time></trkpt>
<trkpt lat="50.432606" lon="4.253061"><time>2026-05-02T23:25:56Z</time></trkpt>
<trkpt lat="50.432588" lon="4.252554"><time>2026-05-02T23:35:56Z</time></trkpt>
</trkseg>
</trk>
<trk>
<name>hmlcr15</name>
<cmt>v</cmt>
<desc>Carnières Chemin n°15 Rue de la Vieille Eglise</desc>
<link href="https://chemins.be/carnieres/chemin/15"/><trkseg>
<trkpt lat="50.439556" lon="4.252917"><time>2026-05-02T23:15:56Z</time></trkpt>
<trkpt lat="50.439781" lon="4.253184"><time>2026-05-02T23:25:56Z</time></trkpt>
<trkpt lat="50.439862" lon="4.253296"><time>2026-05-02T23:35:56Z</time></trkpt>
<trkpt lat="50.440222" lon="4.254056"><time>2026-05-02T23:45:56Z</time></trkpt>
<trkpt lat="50.440357" lon="4.254281"><time>2026-05-02T23:55:56Z</time></trkpt>
<trkpt lat="50.440582" lon="4.254519"><time>2026-05-03T00:05:56Z</time></trkpt>
<trkpt lat="50.440807" lon="4.254702"><time>2026-05-03T00:15:56Z</time></trkpt>
</trkseg>
</trk>
<trk>
<name>hmlcr16</name>
<cmt>v</cmt>
<desc>Carnières Chemin n°16 Rue de Collarmont</desc>
<link href="https://chemins.be/carnieres/chemin/16"/><trkseg>
<trkpt lat="50.431881" lon="4.268017"><time>2026-05-02T23:15:56Z</time></trkpt>
<trkpt lat="50.431931" lon="4.266777"><time>2026-05-02T23:25:56Z</time></trkpt>
<trkpt lat="50.431963" lon="4.265978"><time>2026-05-02T23:35:56Z</time></trkpt>
<trkpt lat="50.432880" lon="4.264455"><time>2026-05-02T23:45:56Z</time></trkpt>
<trkpt lat="50.433188" lon="4.263167"><time>2026-05-02T23:55:56Z</time></trkpt>
<trkpt lat="50.433754" lon="4.260807"><time>2026-05-03T00:05:56Z</time></trkpt>
<trkpt lat="50.433980" lon="4.260496"><time>2026-05-03T00:15:56Z</time></trkpt>
</trkseg></trk>
<trk>
<name>hmlcr16</name>
<cmt>r</cmt>
<desc>Carnières Chemin n°16 Rue de Collarmont</desc>
<link href="https://chemins.be/carnieres/chemin/16"/><trkseg>
<trkpt lat="50.433980" lon="4.260496"><time>2026-05-03T00:15:56Z</time></trkpt>
<trkpt lat="50.434086" lon="4.259219"><time>2026-05-03T00:25:56Z</time></trkpt>
<trkpt lat="50.433553" lon="4.256526"><time>2026-05-03T00:35:56Z</time></trkpt>
<trkpt lat="50.432760" lon="4.255287"><time>2026-05-03T00:45:56Z</time></trkpt>
<trkpt lat="50.432578" lon="4.253898"><time>2026-05-03T00:55:56Z</time></trkpt>
</trkseg></trk>
<trk>
<name>hmlcr16</name>
<cmt>v</cmt>
<desc>Carnières Chemin n°16 Rue de Collarmont</desc>
<link href="https://chemins.be/carnieres/chemin/16"/><trkseg>
<trkpt lat="50.432578" lon="4.253898"><time>2026-05-03T00:55:56Z</time></trkpt>
<trkpt lat="50.432489" lon="4.253075"><time>2026-05-03T01:05:56Z</time></trkpt>
<trkpt lat="50.432570" lon="4.252455"><time>2026-05-03T01:15:56Z</time></trkpt>
</trkseg>
</trk>
<trk>
<name>hmlcr18</name>
<cmt>q</cmt>
<desc>Carnières Chemin n°18 </desc>
<link href="https://chemins.be/carnieres/chemin/18"/><trkseg>
<trkpt lat="50.453505" lon="4.278976"><time>2026-05-02T23:15:56Z</time></trkpt>
<trkpt lat="50.453391" lon="4.277188"><time>2026-05-02T23:25:56Z</time></trkpt>
<trkpt lat="50.453031" lon="4.275765"><time>2026-05-02T23:35:56Z</time></trkpt>
</trkseg>
</trk>
<trk>
<name>hmlcr25</name>
<cmt>r</cmt>
<desc>Carnières Chemin n°25 </desc>
<link href="https://chemins.be/carnieres/chemin/25"/><trkseg>
<trkpt lat="50.447499" lon="4.265490"><time>2026-05-02T23:15:56Z</time></trkpt>
<trkpt lat="50.446676" lon="4.265726"><time>2026-05-02T23:25:56Z</time></trkpt>
</trkseg>
</trk>
<trk>
<name>hmlcr26</name>
<cmt>v</cmt>
<desc>Carnières Chemin n°26 Chemin des pèlerins</desc>
<link href="https://chemins.be/carnieres/chemin/26"/><trkseg>
<trkpt lat="50.435372" lon="4.259261"><time>2026-05-02T23:15:56Z</time></trkpt>
<trkpt lat="50.437402" lon="4.261912"><time>2026-05-02T23:25:56Z</time></trkpt>
<trkpt lat="50.438992" lon="4.265025"><time>2026-05-02T23:35:56Z</time></trkpt>
</trkseg>
</trk>
<trk>
<name>hmlcr29</name>
<cmt>v</cmt>
<desc>Carnières Chemin n°29 </desc>
<link href="https://chemins.be/carnieres/chemin/29"/><trkseg>
<trkpt lat="50.428146" lon="4.251706"><time>2026-05-02T23:15:56Z</time></trkpt>
<trkpt lat="50.428191" lon="4.252368"><time>2026-05-02T23:25:56Z</time></trkpt>
</trkseg>
</trk>
<trk>
<name>hmlcr31</name>
<cmt>v</cmt>
<desc>Carnières Chemin n°31 </desc>
<link href="https://chemins.be/carnieres/chemin/31"/><trkseg>
<trkpt lat="50.432501" lon="4.246417"><time>2026-05-02T23:15:56Z</time></trkpt>
<trkpt lat="50.431270" lon="4.247223"><time>2026-05-02T23:25:56Z</time></trkpt>
</trkseg>
</trk>
<trk>
<name>hmlcr32</name>
<cmt>v</cmt>
<desc>Carnières Chemin n°32 Sentier des Anes</desc>
<link href="https://chemins.be/carnieres/chemin/32"/><trkseg>
<trkpt lat="50.436145" lon="4.249392"><time>2026-05-02T23:15:56Z</time></trkpt>
<trkpt lat="50.436071" lon="4.247900"><time>2026-05-02T23:25:56Z</time></trkpt>
<trkpt lat="50.435710" lon="4.246395"><time>2026-05-02T23:35:56Z</time></trkpt>
<trkpt lat="50.433431" lon="4.242094"><time>2026-05-02T23:45:56Z</time></trkpt>
</trkseg></trk>
<trk>
<name>hmlcr32</name>
<cmt>r</cmt>
<desc>Carnières Chemin n°32 Sentier des Anes</desc>
<link href="https://chemins.be/carnieres/chemin/32"/><trkseg>
<trkpt lat="50.433431" lon="4.242094"><time>2026-05-02T23:45:56Z</time></trkpt>
<trkpt lat="50.432360" lon="4.241421"><time>2026-05-02T23:55:56Z</time></trkpt>
</trkseg></trk>
<trk>
<name>hmlcr32</name>
<cmt>v</cmt>
<desc>Carnières Chemin n°32 Sentier des Anes</desc>
<link href="https://chemins.be/carnieres/chemin/32"/><trkseg>
<trkpt lat="50.432360" lon="4.241421"><time>2026-05-02T23:55:56Z</time></trkpt>
<trkpt lat="50.432027" lon="4.240802"><time>2026-05-03T00:05:56Z</time></trkpt>
<trkpt lat="50.431657" lon="4.239846"><time>2026-05-03T00:15:56Z</time></trkpt>
<trkpt lat="50.431306" lon="4.238862"><time>2026-05-03T00:25:56Z</time></trkpt>
</trkseg></trk>
<trk>
<name>hmlcr32</name>
<cmt>q</cmt>
<desc>Carnières Chemin n°32 Sentier des Anes</desc>
<link href="https://chemins.be/carnieres/chemin/32"/><trkseg>
<trkpt lat="50.431306" lon="4.238862"><time>2026-05-03T00:25:56Z</time></trkpt>
<trkpt lat="50.430873" lon="4.237653"><time>2026-05-03T00:35:56Z</time></trkpt>
<trkpt lat="50.430710" lon="4.237132"><time>2026-05-03T00:45:56Z</time></trkpt>
</trkseg>
</trk>
<trk>
<name>hmlcr34</name>
<cmt>v</cmt>
<desc>Carnières Chemin n°34 </desc>
<link href="https://chemins.be/carnieres/chemin/34"/><trkseg>
<trkpt lat="50.441995" lon="4.256459"><time>2026-05-02T23:15:56Z</time></trkpt>
<trkpt lat="50.442329" lon="4.257007"><time>2026-05-02T23:25:56Z</time></trkpt>
</trkseg></trk>
<trk>
<name>hmlcr34</name>
<cmt>s</cmt>
<desc>Carnières Chemin n°34 </desc>
<link href="https://chemins.be/carnieres/chemin/34"/><trkseg>
<trkpt lat="50.442329" lon="4.257007"><time>2026-05-02T23:25:56Z</time></trkpt>
<trkpt lat="50.443211" lon="4.257836"><time>2026-05-02T23:35:56Z</time></trkpt>
</trkseg>
</trk>
<trk>
<name>hmlcr38</name>
<cmt>q</cmt>
<desc>Carnières Sentier n°38 </desc>
<link href="https://chemins.be/carnieres/sentier/38"/><trkseg>
<trkpt lat="50.454193" lon="4.276733"><time>2026-05-02T23:15:56Z</time></trkpt>
<trkpt lat="50.454086" lon="4.276325"><time>2026-05-02T23:25:56Z</time></trkpt>
<trkpt lat="50.453485" lon="4.276047"><time>2026-05-02T23:35:56Z</time></trkpt>
</trkseg></trk>
<trk>
<name>hmlcr38</name>
<cmt>s</cmt>
<desc>Carnières Sentier n°38 </desc>
<link href="https://chemins.be/carnieres/sentier/38"/><trkseg>
<trkpt lat="50.453485" lon="4.276047"><time>2026-05-02T23:35:56Z</time></trkpt>
<trkpt lat="50.453114" lon="4.275875"><time>2026-05-02T23:45:56Z</time></trkpt>
</trkseg>
</trk>
<trk>
<name>hmlcr39</name>
<cmt>r</cmt>
<desc>Carnières Sentier n°39 Rue du Trichon</desc>
<link href="https://chemins.be/carnieres/sentier/39"/><trkseg>
<trkpt lat="50.456187" lon="4.274384"><time>2026-05-02T23:15:56Z</time></trkpt>
<trkpt lat="50.455941" lon="4.274041"><time>2026-05-02T23:25:56Z</time></trkpt>
<trkpt lat="50.455460" lon="4.274194"><time>2026-05-02T23:35:56Z</time></trkpt>
</trkseg></trk>
<trk>
<name>hmlcr39</name>
<cmt>q</cmt>
<desc>Carnières Sentier n°39 Rue du Trichon</desc>
<link href="https://chemins.be/carnieres/sentier/39"/><trkseg>
<trkpt lat="50.455460" lon="4.274194"><time>2026-05-02T23:35:56Z</time></trkpt>
<trkpt lat="50.454626" lon="4.274561"><time>2026-05-02T23:45:56Z</time></trkpt>
</trkseg></trk>
<trk>
<name>hmlcr39</name>
<cmt>s</cmt>
<desc>Carnières Sentier n°39 Rue du Trichon</desc>
<link href="https://chemins.be/carnieres/sentier/39"/><trkseg>
<trkpt lat="50.454626" lon="4.274561"><time>2026-05-02T23:45:56Z</time></trkpt>
<trkpt lat="50.453794" lon="4.275027"><time>2026-05-02T23:55:56Z</time></trkpt>
</trkseg></trk>
<trk>
<name>hmlcr39</name>
<cmt>q</cmt>
<desc>Carnières Sentier n°39 Rue du Trichon</desc>
<link href="https://chemins.be/carnieres/sentier/39"/><trkseg>
<trkpt lat="50.453794" lon="4.275027"><time>2026-05-02T23:55:56Z</time></trkpt>
<trkpt lat="50.452858" lon="4.275550"><time>2026-05-03T00:05:56Z</time></trkpt>
</trkseg>
</trk>
<trk>
<name>hmlcr4</name>
<cmt>v</cmt>
<desc>Carnières Chemin n°4 </desc>
<link href="https://chemins.be/carnieres/chemin/4"/><trkseg>
<trkpt lat="50.452851" lon="4.265206"><time>2026-05-02T23:15:56Z</time></trkpt>
<trkpt lat="50.455789" lon="4.268349"><time>2026-05-02T23:25:56Z</time></trkpt>
<trkpt lat="50.458343" lon="4.267255"><time>2026-05-02T23:35:56Z</time></trkpt>
</trkseg>
</trk>
<trk>
<name>hmlcr40</name>
<cmt>v</cmt>
<desc>Carnières Sentier n°40 Chemin vicinale N°40</desc>
<link href="https://chemins.be/carnieres/sentier/40"/><trkseg>
<trkpt lat="50.450817" lon="4.269125"><time>2026-05-02T23:15:56Z</time></trkpt>
<trkpt lat="50.450871" lon="4.269125"><time>2026-05-02T23:25:56Z</time></trkpt>
<trkpt lat="50.451132" lon="4.269265"><time>2026-05-02T23:35:56Z</time></trkpt>
<trkpt lat="50.451204" lon="4.269279"><time>2026-05-02T23:45:56Z</time></trkpt>
<trkpt lat="50.451258" lon="4.269265"><time>2026-05-02T23:55:56Z</time></trkpt>
<trkpt lat="50.451420" lon="4.269123"><time>2026-05-03T00:05:56Z</time></trkpt>
<trkpt lat="50.451501" lon="4.268940"><time>2026-05-03T00:15:56Z</time></trkpt>
<trkpt lat="50.451812" lon="4.268637"><time>2026-05-03T00:25:56Z</time></trkpt>
</trkseg></trk>
<trk>
<name>hmlcr40</name>
<cmt>q</cmt>
<desc>Carnières Sentier n°40 Chemin vicinale N°40</desc>
<link href="https://chemins.be/carnieres/sentier/40"/><trkseg>
<trkpt lat="50.451812" lon="4.268637"><time>2026-05-03T00:25:56Z</time></trkpt>
<trkpt lat="50.452559" lon="4.268952"><time>2026-05-03T00:35:56Z</time></trkpt>
<trkpt lat="50.454153" lon="4.269775"><time>2026-05-03T00:45:56Z</time></trkpt>
<trkpt lat="50.455984" lon="4.269716"><time>2026-05-03T00:55:56Z</time></trkpt>
<trkpt lat="50.457724" lon="4.269301"><time>2026-05-03T01:05:56Z</time></trkpt>
</trkseg>
</trk>
<trk>
<name>hmlcr41</name>
<cmt>q</cmt>
<desc>Carnières Sentier n°41 </desc>
<link href="https://chemins.be/carnieres/sentier/41"/><trkseg>
<trkpt lat="50.458760" lon="4.270343"><time>2026-05-02T23:15:56Z</time></trkpt>
<trkpt lat="50.457989" lon="4.269460"><time>2026-05-02T23:25:56Z</time></trkpt>
</trkseg></trk>
<trk>
<name>hmlcr41</name>
<cmt>s</cmt>
<desc>Carnières Sentier n°41 </desc>
<link href="https://chemins.be/carnieres/sentier/41"/><trkseg>
<trkpt lat="50.457989" lon="4.269460"><time>2026-05-02T23:25:56Z</time></trkpt>
<trkpt lat="50.457691" lon="4.269181"><time>2026-05-02T23:35:56Z</time></trkpt>
</trkseg></trk>
<trk>
<name>hmlcr41</name>
<cmt>q</cmt>
<desc>Carnières Sentier n°41 </desc>
<link href="https://chemins.be/carnieres/sentier/41"/><trkseg>
<trkpt lat="50.457691" lon="4.269181"><time>2026-05-02T23:35:56Z</time></trkpt>
<trkpt lat="50.456369" lon="4.268104"><time>2026-05-02T23:45:56Z</time></trkpt>
<trkpt lat="50.456110" lon="4.268283"><time>2026-05-02T23:55:56Z</time></trkpt>
</trkseg>
</trk>
<trk>
<name>hmlcr42</name>
<cmt>v</cmt>
<desc>Carnières Sentier n°42 Rue Mattéotti / Rue Ferrer / Rue Royale / Rue de la Station</desc>
<link href="https://chemins.be/carnieres/sentier/42"/><trkseg>
<trkpt lat="50.452022" lon="4.259350"><time>2026-05-02T23:15:56Z</time></trkpt>
<trkpt lat="50.452023" lon="4.259857"><time>2026-05-02T23:25:56Z</time></trkpt>
</trkseg></trk>
<trk>
<name>hmlcr42</name>
<cmt>r</cmt>
<desc>Carnières Sentier n°42 Rue Mattéotti / Rue Ferrer / Rue Royale / Rue de la Station</desc>
<link href="https://chemins.be/carnieres/sentier/42"/><trkseg>
<trkpt lat="50.452023" lon="4.259857"><time>2026-05-02T23:25:56Z</time></trkpt>
<trkpt lat="50.452078" lon="4.261349"><time>2026-05-02T23:35:56Z</time></trkpt>
<trkpt lat="50.451467" lon="4.261745"><time>2026-05-02T23:45:56Z</time></trkpt>
</trkseg></trk>
<trk>
<name>hmlcr42</name>
<cmt>v</cmt>
<desc>Carnières Sentier n°42 Rue Mattéotti / Rue Ferrer / Rue Royale / Rue de la Station</desc>
<link href="https://chemins.be/carnieres/sentier/42"/><trkseg>
<trkpt lat="50.451467" lon="4.261745"><time>2026-05-02T23:45:56Z</time></trkpt>
<trkpt lat="50.451693" lon="4.262772"><time>2026-05-02T23:55:56Z</time></trkpt>
</trkseg></trk>
<trk>
<name>hmlcr42</name>
<cmt>r</cmt>
<desc>Carnières Sentier n°42 Rue Mattéotti / Rue Ferrer / Rue Royale / Rue de la Station</desc>
<link href="https://chemins.be/carnieres/sentier/42"/><trkseg>
<trkpt lat="50.451693" lon="4.262772"><time>2026-05-02T23:55:56Z</time></trkpt>
<trkpt lat="50.451073" lon="4.263224"><time>2026-05-03T00:05:56Z</time></trkpt>
</trkseg></trk>
<trk>
<name>hmlcr42</name>
<cmt>v</cmt>
<desc>Carnières Sentier n°42 Rue Mattéotti / Rue Ferrer / Rue Royale / Rue de la Station</desc>
<link href="https://chemins.be/carnieres/sentier/42"/><trkseg>
<trkpt lat="50.451073" lon="4.263224"><time>2026-05-03T00:05:56Z</time></trkpt>
<trkpt lat="50.451245" lon="4.263984"><time>2026-05-03T00:15:56Z</time></trkpt>
<trkpt lat="50.451038" lon="4.264562"><time>2026-05-03T00:25:56Z</time></trkpt>
<trkpt lat="50.451093" lon="4.264998"><time>2026-05-03T00:35:56Z</time></trkpt>
</trkseg>
</trk>
<trk>
<name>hmlcr43</name>
<cmt>v</cmt>
<desc>Carnières Sentier n°43 sentier 43</desc>
<link href="https://chemins.be/carnieres/sentier/43"/><trkseg>
<trkpt lat="50.450422" lon="4.265305"><time>2026-05-02T23:15:56Z</time></trkpt>
<trkpt lat="50.450553" lon="4.267175"><time>2026-05-02T23:25:56Z</time></trkpt>
</trkseg>
</trk>
<trk>
<name>hmlcr44</name>
<cmt>q</cmt>
<desc>Carnières Sentier n°44 </desc>
<link href="https://chemins.be/carnieres/sentier/44"/><trkseg>
<trkpt lat="50.450625" lon="4.270388"><time>2026-05-02T23:15:56Z</time></trkpt>
<trkpt lat="50.449914" lon="4.269980"><time>2026-05-02T23:25:56Z</time></trkpt>
<trkpt lat="50.449194" lon="4.268543"><time>2026-05-02T23:35:56Z</time></trkpt>
</trkseg>
</trk>
<trk>
<name>hmlcr45</name>
<cmt>q</cmt>
<desc>Carnières Sentier n°45 </desc>
<link href="https://chemins.be/carnieres/sentier/45"/><trkseg>
<trkpt lat="50.452438" lon="4.272969"><time>2026-05-02T23:15:56Z</time></trkpt>
<trkpt lat="50.452623" lon="4.273134"><time>2026-05-02T23:25:56Z</time></trkpt>
<trkpt lat="50.452746" lon="4.274149"><time>2026-05-02T23:35:56Z</time></trkpt>
</trkseg>
</trk>
<trk>
<name>hmlcr47</name>
<cmt>q</cmt>
<desc>Carnières Sentier n°47 </desc>
<link href="https://chemins.be/carnieres/sentier/47"/><trkseg>
<trkpt lat="50.452024" lon="4.254716"><time>2026-05-02T23:15:56Z</time></trkpt>
<trkpt lat="50.452087" lon="4.254823"><time>2026-05-02T23:25:56Z</time></trkpt>
<trkpt lat="50.452107" lon="4.255678"><time>2026-05-02T23:35:56Z</time></trkpt>
</trkseg></trk>
<trk>
<name>hmlcr47</name>
<cmt>s</cmt>
<desc>Carnières Sentier n°47 </desc>
<link href="https://chemins.be/carnieres/sentier/47"/><trkseg>
<trkpt lat="50.452107" lon="4.255678"><time>2026-05-02T23:35:56Z</time></trkpt>
<trkpt lat="50.452105" lon="4.255871"><time>2026-05-02T23:45:56Z</time></trkpt>
<trkpt lat="50.451757" lon="4.256279"><time>2026-05-02T23:55:56Z</time></trkpt>
</trkseg>
</trk>
<trk>
<name>hmlcr48</name>
<cmt>v</cmt>
<desc>Carnières Sentier n°48 Rue Saint-Sang</desc>
<link href="https://chemins.be/carnieres/sentier/48"/><trkseg>
<trkpt lat="50.451362" lon="4.254944"><time>2026-05-02T23:15:56Z</time></trkpt>
<trkpt lat="50.451605" lon="4.255662"><time>2026-05-02T23:25:56Z</time></trkpt>
</trkseg></trk>
<trk>
<name>hmlcr48</name>
<cmt>q</cmt>
<desc>Carnières Sentier n°48 Rue Saint-Sang</desc>
<link href="https://chemins.be/carnieres/sentier/48"/><trkseg>
<trkpt lat="50.451605" lon="4.255662"><time>2026-05-02T23:25:56Z</time></trkpt>
<trkpt lat="50.451741" lon="4.256309"><time>2026-05-02T23:35:56Z</time></trkpt>
<trkpt lat="50.451876" lon="4.256590"><time>2026-05-02T23:45:56Z</time></trkpt>
<trkpt lat="50.451858" lon="4.257097"><time>2026-05-02T23:55:56Z</time></trkpt>
</trkseg>
</trk>
<trk>
<name>hmlcr5</name>
<cmt>v</cmt>
<desc>Carnières Chemin n°5 </desc>
<link href="https://chemins.be/carnieres/chemin/5"/><trkseg>
<trkpt lat="50.451464" lon="4.282898"><time>2026-05-02T23:15:56Z</time></trkpt>
<trkpt lat="50.451864" lon="4.282127"><time>2026-05-02T23:25:56Z</time></trkpt>
</trkseg></trk>
<trk>
<name>hmlcr5</name>
<cmt>d</cmt>
<desc>Carnières Chemin n°5 </desc>
<link href="https://chemins.be/carnieres/chemin/5"/><trkseg>
<trkpt lat="50.451864" lon="4.282127"><time>2026-05-02T23:25:56Z</time></trkpt>
<trkpt lat="50.452994" lon="4.279950"><time>2026-05-02T23:35:56Z</time></trkpt>
<trkpt lat="50.453513" lon="4.278949"><time>2026-05-02T23:45:56Z</time></trkpt>
<trkpt lat="50.454502" lon="4.277881"><time>2026-05-02T23:55:56Z</time></trkpt>
<trkpt lat="50.455228" lon="4.276755"><time>2026-05-03T00:05:56Z</time></trkpt>
</trkseg></trk>
<trk>
<name>hmlcr5</name>
<cmt>v</cmt>
<desc>Carnières Chemin n°5 </desc>
<link href="https://chemins.be/carnieres/chemin/5"/><trkseg>
<trkpt lat="50.455228" lon="4.276755"><time>2026-05-03T00:05:56Z</time></trkpt>
<trkpt lat="50.455117" lon="4.276029"><time>2026-05-03T00:15:56Z</time></trkpt>
</trkseg>
</trk>
<trk>
<name>hmlcr51</name>
<cmt>q</cmt>
<desc>Carnières Sentier n°51 </desc>
<link href="https://chemins.be/carnieres/sentier/51"/><trkseg>
<trkpt lat="50.452237" lon="4.257786"><time>2026-05-02T23:15:56Z</time></trkpt>
<trkpt lat="50.451814" lon="4.258027"><time>2026-05-02T23:25:56Z</time></trkpt>
</trkseg>
</trk>
<trk>
<name>hmlcr52</name>
<cmt>v</cmt>
<desc>Carnières Sentier n°52 Sentier Saint-Sang</desc>
<link href="https://chemins.be/carnieres/sentier/52"/><trkseg>
<trkpt lat="50.448674" lon="4.255204"><time>2026-05-02T23:15:56Z</time></trkpt>
<trkpt lat="50.448890" lon="4.255161"><time>2026-05-02T23:25:56Z</time></trkpt>
<trkpt lat="50.449411" lon="4.255118"><time>2026-05-02T23:35:56Z</time></trkpt>
<trkpt lat="50.450751" lon="4.254974"><time>2026-05-02T23:45:56Z</time></trkpt>
<trkpt lat="50.451308" lon="4.254832"><time>2026-05-02T23:55:56Z</time></trkpt>
</trkseg></trk>
<trk>
<name>hmlcr52</name>
<cmt>q</cmt>
<desc>Carnières Sentier n°52 Sentier Saint-Sang</desc>
<link href="https://chemins.be/carnieres/sentier/52"/><trkseg>
<trkpt lat="50.451308" lon="4.254832"><time>2026-05-02T23:55:56Z</time></trkpt>
<trkpt lat="50.452005" lon="4.254676"><time>2026-05-03T00:05:56Z</time></trkpt>
<trkpt lat="50.452447" lon="4.254179"><time>2026-05-03T00:15:56Z</time></trkpt>
</trkseg>
</trk>
<trk>
<name>hmlcr53</name>
<cmt>v</cmt>
<desc>Carnières Sentier n°53 Piedsente Haye Geant</desc>
<link href="https://chemins.be/carnieres/sentier/53"/><trkseg>
<trkpt lat="50.449285" lon="4.254456"><time>2026-05-02T23:15:56Z</time></trkpt>
<trkpt lat="50.449374" lon="4.253724"><time>2026-05-02T23:25:56Z</time></trkpt>
<trkpt lat="50.449382" lon="4.253175"><time>2026-05-02T23:35:56Z</time></trkpt>
<trkpt lat="50.450298" lon="4.251638"><time>2026-05-02T23:45:56Z</time></trkpt>
<trkpt lat="50.450450" lon="4.251370"><time>2026-05-02T23:55:56Z</time></trkpt>
<trkpt lat="50.450162" lon="4.250314"><time>2026-05-03T00:05:56Z</time></trkpt>
<trkpt lat="50.449711" lon="4.248936"><time>2026-05-03T00:15:56Z</time></trkpt>
<trkpt lat="50.449647" lon="4.248232"><time>2026-05-03T00:25:56Z</time></trkpt>
</trkseg></trk>
<trk>
<name>hmlcr53</name>
<cmt>q</cmt>
<desc>Carnières Sentier n°53 Piedsente Haye Geant</desc>
<link href="https://chemins.be/carnieres/sentier/53"/><trkseg>
<trkpt lat="50.449647" lon="4.248232"><time>2026-05-03T00:25:56Z</time></trkpt>
<trkpt lat="50.449304" lon="4.246487"><time>2026-05-03T00:35:56Z</time></trkpt>
</trkseg>
</trk>
<trk>
<name>hmlcr54</name>
<cmt>q</cmt>
<desc>Carnières Sentier n°54 </desc>
<link href="https://chemins.be/carnieres/sentier/54"/><trkseg>
<trkpt lat="50.452139" lon="4.258702"><time>2026-05-02T23:15:56Z</time></trkpt>
<trkpt lat="50.451941" lon="4.258660"><time>2026-05-02T23:25:56Z</time></trkpt>
</trkseg>
</trk>
<trk>
<name>hmlcr55</name>
<cmt>v</cmt>
<desc>Carnières Sentier n°55 Rue Saint-Sang / Atlas des voiries vicinales de 1841 : N° 55</desc>
<link href="https://chemins.be/carnieres/sentier/55"/><trkseg>
<trkpt lat="50.451335" lon="4.254888"><time>2026-05-02T23:15:56Z</time></trkpt>
<trkpt lat="50.450893" lon="4.253439"><time>2026-05-02T23:25:56Z</time></trkpt>
<trkpt lat="50.450856" lon="4.252721"><time>2026-05-02T23:35:56Z</time></trkpt>
<trkpt lat="50.450694" lon="4.252172"><time>2026-05-02T23:45:56Z</time></trkpt>
<trkpt lat="50.450298" lon="4.251638"><time>2026-05-02T23:55:56Z</time></trkpt>
</trkseg>
</trk>
<trk>
<name>hmlcr57</name>
<cmt>v</cmt>
<desc>Carnières Sentier n°57 Ruelle des Champs Élysées</desc>
<link href="https://chemins.be/carnieres/sentier/57"/><trkseg>
<trkpt lat="50.450759" lon="4.245230"><time>2026-05-02T23:15:56Z</time></trkpt>
<trkpt lat="50.449753" lon="4.246035"><time>2026-05-02T23:25:56Z</time></trkpt>
</trkseg></trk>
<trk>
<name>hmlcr57</name>
<cmt>q</cmt>
<desc>Carnières Sentier n°57 Ruelle des Champs Élysées</desc>
<link href="https://chemins.be/carnieres/sentier/57"/><trkseg>
<trkpt lat="50.449753" lon="4.246035"><time>2026-05-02T23:25:56Z</time></trkpt>
<trkpt lat="50.449304" lon="4.246487"><time>2026-05-02T23:35:56Z</time></trkpt>
<trkpt lat="50.448405" lon="4.247109"><time>2026-05-02T23:45:56Z</time></trkpt>
<trkpt lat="50.447562" lon="4.248603"><time>2026-05-02T23:55:56Z</time></trkpt>
<trkpt lat="50.446423" lon="4.251605"><time>2026-05-03T00:05:56Z</time></trkpt>
<trkpt lat="50.446425" lon="4.253238"><time>2026-05-03T00:15:56Z</time></trkpt>
</trkseg>
</trk>
<trk>
<name>hmlcr58</name>
<cmt>v</cmt>
<desc>Carnières Sentier n°58 Piedsente du Tierne</desc>
<link href="https://chemins.be/carnieres/sentier/58"/><trkseg>
<trkpt lat="50.445611" lon="4.258365"><time>2026-05-02T23:15:56Z</time></trkpt>
<trkpt lat="50.445494" lon="4.258196"><time>2026-05-02T23:25:56Z</time></trkpt>
<trkpt lat="50.445476" lon="4.257943"><time>2026-05-02T23:35:56Z</time></trkpt>
<trkpt lat="50.445602" lon="4.257534"><time>2026-05-02T23:45:56Z</time></trkpt>
<trkpt lat="50.446626" lon="4.256800"><time>2026-05-02T23:55:56Z</time></trkpt>
<trkpt lat="50.448055" lon="4.256064"><time>2026-05-03T00:05:56Z</time></trkpt>
</trkseg>
</trk>
<trk>
<name>hmlcr59</name>
<cmt>v</cmt>
<desc>Carnières Sentier n°59 Piedsente du Tierne</desc>
<link href="https://chemins.be/carnieres/sentier/59"/><trkseg>
<trkpt lat="50.445698" lon="4.254887"><time>2026-05-02T23:15:56Z</time></trkpt>
<trkpt lat="50.445644" lon="4.255042"><time>2026-05-02T23:25:56Z</time></trkpt>
<trkpt lat="50.445330" lon="4.255648"><time>2026-05-02T23:35:56Z</time></trkpt>
<trkpt lat="50.445043" lon="4.256240"><time>2026-05-02T23:45:56Z</time></trkpt>
<trkpt lat="50.445214" lon="4.256676"><time>2026-05-02T23:55:56Z</time></trkpt>
<trkpt lat="50.445593" lon="4.257577"><time>2026-05-03T00:05:56Z</time></trkpt>
</trkseg>
</trk>
<trk>
<name>hmlcr60</name>
<cmt>v</cmt>
<desc>Carnières Sentier n°60 </desc>
<link href="https://chemins.be/carnieres/sentier/60"/><trkseg>
<trkpt lat="50.452732" lon="4.259123"><time>2026-05-02T23:15:56Z</time></trkpt>
<trkpt lat="50.453236" lon="4.258699"><time>2026-05-02T23:25:56Z</time></trkpt>
<trkpt lat="50.453181" lon="4.258305"><time>2026-05-02T23:35:56Z</time></trkpt>
</trkseg>
</trk>
<trk>
<name>hmlcr61</name>
<cmt>q</cmt>
<desc>Carnières Sentier n°61 </desc>
<link href="https://chemins.be/carnieres/sentier/61"/><trkseg>
<trkpt lat="50.449013" lon="4.273859"><time>2026-05-02T23:15:56Z</time></trkpt>
<trkpt lat="50.449153" lon="4.272566"><time>2026-05-02T23:25:56Z</time></trkpt>
<trkpt lat="50.449030" lon="4.269937"><time>2026-05-02T23:35:56Z</time></trkpt>
<trkpt lat="50.449088" lon="4.268870"><time>2026-05-02T23:45:56Z</time></trkpt>
<trkpt lat="50.449214" lon="4.268537"><time>2026-05-02T23:55:56Z</time></trkpt>
<trkpt lat="50.448975" lon="4.267952"><time>2026-05-03T00:05:56Z</time></trkpt>
<trkpt lat="50.449576" lon="4.267362"><time>2026-05-03T00:15:56Z</time></trkpt>
</trkseg>
</trk>
<trk>
<name>hmlcr61bis</name>
<cmt>q</cmt>
<desc>Carnières Sentier n°61bis </desc>
<link href="https://chemins.be/carnieres/sentier/61bis"/><trkseg>
<trkpt lat="50.448818" lon="4.267722"><time>2026-05-02T23:15:56Z</time></trkpt>
<trkpt lat="50.448954" lon="4.267910"><time>2026-05-02T23:25:56Z</time></trkpt>
</trkseg>
</trk>
<trk>
<name>hmlcr62</name>
<cmt>s</cmt>
<desc>Carnières Sentier n°62 </desc>
<link href="https://chemins.be/carnieres/sentier/62"/><trkseg>
<trkpt lat="50.446745" lon="4.268749"><time>2026-05-02T23:15:56Z</time></trkpt>
<trkpt lat="50.446775" lon="4.268658"><time>2026-05-02T23:25:56Z</time></trkpt>
<trkpt lat="50.447214" lon="4.268725"><time>2026-05-02T23:35:56Z</time></trkpt>
</trkseg></trk>
<trk>
<name>hmlcr62</name>
<cmt>q</cmt>
<desc>Carnières Sentier n°62 </desc>
<link href="https://chemins.be/carnieres/sentier/62"/><trkseg>
<trkpt lat="50.447214" lon="4.268725"><time>2026-05-02T23:35:56Z</time></trkpt>
<trkpt lat="50.447628" lon="4.269369"><time>2026-05-02T23:45:56Z</time></trkpt>
<trkpt lat="50.448513" lon="4.270828"><time>2026-05-02T23:55:56Z</time></trkpt>
<trkpt lat="50.449135" lon="4.272577"><time>2026-05-03T00:05:56Z</time></trkpt>
</trkseg>
</trk>
<trk>
<name>hmlcr63</name>
<cmt>r</cmt>
<desc>Carnières Sentier n°63 Rue de la Tour</desc>
<link href="https://chemins.be/carnieres/sentier/63"/><trkseg>
<trkpt lat="50.447609" lon="4.269310"><time>2026-05-02T23:15:56Z</time></trkpt>
<trkpt lat="50.448811" lon="4.267802"><time>2026-05-02T23:25:56Z</time></trkpt>
</trkseg></trk>
<trk>
<name>hmlcr63</name>
<cmt>d</cmt>
<desc>Carnières Sentier n°63 Rue de la Tour</desc>
<link href="https://chemins.be/carnieres/sentier/63"/><trkseg>
<trkpt lat="50.448811" lon="4.267802"><time>2026-05-02T23:25:56Z</time></trkpt>
<trkpt lat="50.448722" lon="4.267008"><time>2026-05-02T23:35:56Z</time></trkpt>
<trkpt lat="50.448589" lon="4.266649"><time>2026-05-02T23:45:56Z</time></trkpt>
<trkpt lat="50.448346" lon="4.266016"><time>2026-05-02T23:55:56Z</time></trkpt>
</trkseg>
</trk>
<trk>
<name>hmlcr64</name>
<cmt>q</cmt>
<desc>Carnières Sentier n°64 </desc>
<link href="https://chemins.be/carnieres/sentier/64"/><trkseg>
<trkpt lat="50.447204" lon="4.268709"><time>2026-05-02T23:15:56Z</time></trkpt>
<trkpt lat="50.447612" lon="4.268041"><time>2026-05-02T23:25:56Z</time></trkpt>
</trkseg>
</trk>
<trk>
<name>hmlcr65</name>
<cmt>s</cmt>
<desc>Carnières Sentier n°65 </desc>
<link href="https://chemins.be/carnieres/sentier/65"/><trkseg>
<trkpt lat="50.446929" lon="4.268690"><time>2026-05-02T23:15:56Z</time></trkpt>
<trkpt lat="50.447289" lon="4.268030"><time>2026-05-02T23:25:56Z</time></trkpt>
</trkseg>
</trk>
<trk>
<name>hmlcr66</name>
<cmt>v</cmt>
<desc>Carnières Sentier n°66 Sentier Fond des Maçons</desc>
<link href="https://chemins.be/carnieres/sentier/66"/><trkseg>
<trkpt lat="50.446662" lon="4.265721"><time>2026-05-02T23:15:56Z</time></trkpt>
<trkpt lat="50.446324" lon="4.265699"><time>2026-05-02T23:25:56Z</time></trkpt>
<trkpt lat="50.446266" lon="4.266020"><time>2026-05-02T23:35:56Z</time></trkpt>
<trkpt lat="50.445969" lon="4.267389"><time>2026-05-02T23:45:56Z</time></trkpt>
<trkpt lat="50.445730" lon="4.267196"><time>2026-05-02T23:55:56Z</time></trkpt>
<trkpt lat="50.445602" lon="4.267319"><time>2026-05-03T00:05:56Z</time></trkpt>
</trkseg>
</trk>
<trk>
<name>hmlcr67</name>
<cmt>v</cmt>
<desc>Carnières Sentier n°67 Atlas des voiries vicinales de 1841 : N° 67</desc>
<link href="https://chemins.be/carnieres/sentier/67"/><trkseg>
<trkpt lat="50.445220" lon="4.263294"><time>2026-05-02T23:15:56Z</time></trkpt>
<trkpt lat="50.445768" lon="4.262954"><time>2026-05-02T23:25:56Z</time></trkpt>
<trkpt lat="50.445840" lon="4.262419"><time>2026-05-02T23:35:56Z</time></trkpt>
<trkpt lat="50.446298" lon="4.262137"><time>2026-05-02T23:45:56Z</time></trkpt>
</trkseg>
</trk>
<trk>
<name>hmlcr68</name>
<cmt>v</cmt>
<desc>Carnières Sentier n°68 Piedsente de Rambousseaux</desc>
<link href="https://chemins.be/carnieres/sentier/68"/><trkseg>
<trkpt lat="50.442881" lon="4.271535"><time>2026-05-02T23:15:56Z</time></trkpt>
<trkpt lat="50.442727" lon="4.270634"><time>2026-05-02T23:25:56Z</time></trkpt>
<trkpt lat="50.442816" lon="4.269437"><time>2026-05-02T23:35:56Z</time></trkpt>
<trkpt lat="50.442932" lon="4.268325"><time>2026-05-02T23:45:56Z</time></trkpt>
<trkpt lat="50.443039" lon="4.267339"><time>2026-05-02T23:55:56Z</time></trkpt>
<trkpt lat="50.442974" lon="4.264312"><time>2026-05-03T00:05:56Z</time></trkpt>
</trkseg>
</trk>
<trk>
<name>hmlcr69</name>
<cmt>v</cmt>
<desc>Carnières Sentier n°69 Piedsente de Rambousseaux</desc>
<link href="https://chemins.be/carnieres/sentier/69"/><trkseg>
<trkpt lat="50.444644" lon="4.262028"><time>2026-05-02T23:15:56Z</time></trkpt>
<trkpt lat="50.443359" lon="4.262946"><time>2026-05-02T23:25:56Z</time></trkpt>
<trkpt lat="50.442947" lon="4.264228"><time>2026-05-02T23:35:56Z</time></trkpt>
</trkseg>
</trk>
<trk>
<name>hmlcr7</name>
<cmt>v</cmt>
<desc>Carnières Chemin n°7 Rue Sault à Sault / rue de la rosière</desc>
<link href="https://chemins.be/carnieres/chemin/7"/><trkseg>
<trkpt lat="50.428109" lon="4.251340"><time>2026-05-02T23:15:56Z</time></trkpt>
<trkpt lat="50.428430" lon="4.248497"><time>2026-05-02T23:25:56Z</time></trkpt>
<trkpt lat="50.428445" lon="4.245555"><time>2026-05-02T23:35:56Z</time></trkpt>
<trkpt lat="50.428803" lon="4.243541"><time>2026-05-02T23:45:56Z</time></trkpt>
<trkpt lat="50.428612" lon="4.241670"><time>2026-05-02T23:55:56Z</time></trkpt>
<trkpt lat="50.429050" lon="4.239375"><time>2026-05-03T00:05:56Z</time></trkpt>
<trkpt lat="50.429606" lon="4.238458"><time>2026-05-03T00:15:56Z</time></trkpt>
</trkseg>
</trk>
<trk>
<name>hmlcr70</name>
<cmt>v</cmt>
<desc>Carnières Sentier n°70 Sentier du champ Là-haut</desc>
<link href="https://chemins.be/carnieres/sentier/70"/><trkseg>
<trkpt lat="50.446635" lon="4.271772"><time>2026-05-02T23:15:56Z</time></trkpt>
<trkpt lat="50.446095" lon="4.272142"><time>2026-05-02T23:25:56Z</time></trkpt>
<trkpt lat="50.445877" lon="4.272652"><time>2026-05-02T23:35:56Z</time></trkpt>
</trkseg></trk>
<trk>
<name>hmlcr70</name>
<cmt>q</cmt>
<desc>Carnières Sentier n°70 Sentier du champ Là-haut</desc>
<link href="https://chemins.be/carnieres/sentier/70"/><trkseg>
<trkpt lat="50.445877" lon="4.272652"><time>2026-05-02T23:35:56Z</time></trkpt>
<trkpt lat="50.443882" lon="4.278424"><time>2026-05-02T23:45:56Z</time></trkpt>
</trkseg>
</trk>
<trk>
<name>hmlcr71</name>
<cmt>v</cmt>
<desc>Carnières Sentier n°71 Ruelle du champ Là-haut</desc>
<link href="https://chemins.be/carnieres/sentier/71"/><trkseg>
<trkpt lat="50.443584" lon="4.274411"><time>2026-05-02T23:15:56Z</time></trkpt>
<trkpt lat="50.444459" lon="4.273226"><time>2026-05-02T23:25:56Z</time></trkpt>
<trkpt lat="50.445832" lon="4.272652"><time>2026-05-02T23:35:56Z</time></trkpt>
</trkseg></trk>
<trk>
<name>hmlcr71</name>
<cmt>q</cmt>
<desc>Carnières Sentier n°71 Ruelle du champ Là-haut</desc>
<link href="https://chemins.be/carnieres/sentier/71"/><trkseg>
<trkpt lat="50.445832" lon="4.272652"><time>2026-05-02T23:35:56Z</time></trkpt>
<trkpt lat="50.446157" lon="4.272528"><time>2026-05-02T23:45:56Z</time></trkpt>
</trkseg>
</trk>
<trk>
<name>hmlcr71bis</name>
<cmt>r</cmt>
<desc>Carnières Sentier n°71bis </desc>
<link href="https://chemins.be/carnieres/sentier/71bis"/><trkseg>
<trkpt lat="50.440886" lon="4.252928"><time>2026-05-02T23:15:56Z</time></trkpt>
<trkpt lat="50.441038" lon="4.252083"><time>2026-05-02T23:25:56Z</time></trkpt>
</trkseg>
</trk>
<trk>
<name>hmlcr72</name>
<cmt>q</cmt>
<desc>Carnières Sentier n°72 </desc>
<link href="https://chemins.be/carnieres/sentier/72"/><trkseg>
<trkpt lat="50.447092" lon="4.272952"><time>2026-05-02T23:15:56Z</time></trkpt>
<trkpt lat="50.446925" lon="4.273317"><time>2026-05-02T23:25:56Z</time></trkpt>
<trkpt lat="50.446164" lon="4.272523"><time>2026-05-02T23:35:56Z</time></trkpt>
<trkpt lat="50.445815" lon="4.271225"><time>2026-05-02T23:45:56Z</time></trkpt>
<trkpt lat="50.445068" lon="4.271031"><time>2026-05-02T23:55:56Z</time></trkpt>
</trkseg></trk>
<trk>
<name>hmlcr72</name>
<cmt>s</cmt>
<desc>Carnières Sentier n°72 </desc>
<link href="https://chemins.be/carnieres/sentier/72"/><trkseg>
<trkpt lat="50.445068" lon="4.271031"><time>2026-05-02T23:55:56Z</time></trkpt>
<trkpt lat="50.444571" lon="4.270903"><time>2026-05-03T00:05:56Z</time></trkpt>
</trkseg></trk>
<trk>
<name>hmlcr72</name>
<cmt>q</cmt>
<desc>Carnières Sentier n°72 </desc>
<link href="https://chemins.be/carnieres/sentier/72"/><trkseg>
<trkpt lat="50.444571" lon="4.270903"><time>2026-05-03T00:05:56Z</time></trkpt>
<trkpt lat="50.442863" lon="4.269369"><time>2026-05-03T00:15:56Z</time></trkpt>
<trkpt lat="50.441743" lon="4.269776"><time>2026-05-03T00:25:56Z</time></trkpt>
</trkseg>
</trk>
<trk>
<name>hmlcr74</name>
<cmt>q</cmt>
<desc>Carnières Sentier n°74 </desc>
<link href="https://chemins.be/carnieres/sentier/74"/><trkseg>
<trkpt lat="50.445569" lon="4.267309"><time>2026-05-02T23:15:56Z</time></trkpt>
<trkpt lat="50.443909" lon="4.268435"><time>2026-05-02T23:25:56Z</time></trkpt>
<trkpt lat="50.442809" lon="4.269980"><time>2026-05-02T23:35:56Z</time></trkpt>
</trkseg>
</trk>
<trk>
<name>hmlcr75</name>
<cmt>q</cmt>
<desc>Carnières Sentier n°75 </desc>
<link href="https://chemins.be/carnieres/sentier/75"/><trkseg>
<trkpt lat="50.441388" lon="4.268998"><time>2026-05-02T23:15:56Z</time></trkpt>
<trkpt lat="50.441870" lon="4.268798"><time>2026-05-02T23:25:56Z</time></trkpt>
</trkseg></trk>
<trk>
<name>hmlcr75</name>
<cmt>r</cmt>
<desc>Carnières Sentier n°75 </desc>
<link href="https://chemins.be/carnieres/sentier/75"/><trkseg>
<trkpt lat="50.441870" lon="4.268798"><time>2026-05-02T23:25:56Z</time></trkpt>
<trkpt lat="50.442935" lon="4.268355"><time>2026-05-02T23:35:56Z</time></trkpt>
</trkseg></trk>
<trk>
<name>hmlcr75</name>
<cmt>q</cmt>
<desc>Carnières Sentier n°75 </desc>
<link href="https://chemins.be/carnieres/sentier/75"/><trkseg>
<trkpt lat="50.442935" lon="4.268355"><time>2026-05-02T23:35:56Z</time></trkpt>
<trkpt lat="50.443936" lon="4.268424"><time>2026-05-02T23:45:56Z</time></trkpt>
</trkseg>
</trk>
<trk>
<name>hmlcr76</name>
<cmt>v</cmt>
<desc>Carnières Sentier n°76 </desc>
<link href="https://chemins.be/carnieres/sentier/76"/><trkseg>
<trkpt lat="50.442506" lon="4.264257"><time>2026-05-02T23:15:56Z</time></trkpt>
<trkpt lat="50.442938" lon="4.264312"><time>2026-05-02T23:25:56Z</time></trkpt>
</trkseg>
</trk>
<trk>
<name>hmlcr78</name>
<cmt>v</cmt>
<desc>Carnières Sentier n°78 </desc>
<link href="https://chemins.be/carnieres/sentier/78"/><trkseg>
<trkpt lat="50.439147" lon="4.267665"><time>2026-05-02T23:15:56Z</time></trkpt>
<trkpt lat="50.438541" lon="4.268043"><time>2026-05-02T23:25:56Z</time></trkpt>
<trkpt lat="50.438308" lon="4.268411"><time>2026-05-02T23:35:56Z</time></trkpt>
</trkseg>
</trk>
<trk>
<name>hmlcr79</name>
<cmt>b</cmt>
<desc>Carnières Sentier n°79 </desc>
<link href="https://chemins.be/carnieres/sentier/79"/><trkseg>
<trkpt lat="50.437933" lon="4.266037"><time>2026-05-02T23:15:56Z</time></trkpt>
<trkpt lat="50.437489" lon="4.266155"><time>2026-05-02T23:25:56Z</time></trkpt>
<trkpt lat="50.435822" lon="4.266091"><time>2026-05-02T23:35:56Z</time></trkpt>
<trkpt lat="50.434160" lon="4.266163"><time>2026-05-02T23:45:56Z</time></trkpt>
<trkpt lat="50.433444" lon="4.266633"><time>2026-05-02T23:55:56Z</time></trkpt>
<trkpt lat="50.433020" lon="4.267336"><time>2026-05-03T00:05:56Z</time></trkpt>
</trkseg>
</trk>
<trk>
<name>hmlcr8</name>
<cmt>v</cmt>
<desc>Carnières Chemin n°8 Rue de Vierset</desc>
<link href="https://chemins.be/carnieres/chemin/8"/><trkseg>
<trkpt lat="50.446683" lon="4.234638"><time>2026-05-02T23:15:56Z</time></trkpt>
<trkpt lat="50.446081" lon="4.234415"><time>2026-05-02T23:25:56Z</time></trkpt>
</trkseg>
</trk>
<trk>
<name>hmlcr80</name>
<cmt>q</cmt>
<desc>Carnières Sentier n°80 </desc>
<link href="https://chemins.be/carnieres/sentier/80"/><trkseg>
<trkpt lat="50.440318" lon="4.265415"><time>2026-05-02T23:15:56Z</time></trkpt>
<trkpt lat="50.440188" lon="4.265533"><time>2026-05-02T23:25:56Z</time></trkpt>
<trkpt lat="50.439922" lon="4.264879"><time>2026-05-02T23:35:56Z</time></trkpt>
<trkpt lat="50.439006" lon="4.264900"><time>2026-05-02T23:45:56Z</time></trkpt>
<trkpt lat="50.438906" lon="4.264645"><time>2026-05-02T23:55:56Z</time></trkpt>
<trkpt lat="50.437460" lon="4.261754"><time>2026-05-03T00:05:56Z</time></trkpt>
<trkpt lat="50.435690" lon="4.259469"><time>2026-05-03T00:15:56Z</time></trkpt>
<trkpt lat="50.435557" lon="4.259474"><time>2026-05-03T00:25:56Z</time></trkpt>
</trkseg>
</trk>
<trk>
<name>hmlcr81</name>
<cmt>v</cmt>
<desc>Carnières Sentier n°81 </desc>
<link href="https://chemins.be/carnieres/sentier/81"/><trkseg>
<trkpt lat="50.442228" lon="4.264722"><time>2026-05-02T23:15:56Z</time></trkpt>
<trkpt lat="50.441984" lon="4.263850"><time>2026-05-02T23:25:56Z</time></trkpt>
</trkseg></trk>
<trk>
<name>hmlcr81</name>
<cmt>q</cmt>
<desc>Carnières Sentier n°81 </desc>
<link href="https://chemins.be/carnieres/sentier/81"/><trkseg>
<trkpt lat="50.441984" lon="4.263850"><time>2026-05-02T23:25:56Z</time></trkpt>
<trkpt lat="50.441209" lon="4.261796"><time>2026-05-02T23:35:56Z</time></trkpt>
</trkseg>
</trk>
<trk>
<name>hmlcr82</name>
<cmt>v</cmt>
<desc>Carnières Sentier n°82 Atlas des voiries vicinales de 1841 : N° 82</desc>
<link href="https://chemins.be/carnieres/sentier/82"/><trkseg>
<trkpt lat="50.442329" lon="4.257007"><time>2026-05-02T23:15:56Z</time></trkpt>
<trkpt lat="50.442392" lon="4.257345"><time>2026-05-02T23:25:56Z</time></trkpt>
<trkpt lat="50.442645" lon="4.258817"><time>2026-05-02T23:35:56Z</time></trkpt>
<trkpt lat="50.442896" lon="4.259721"><time>2026-05-02T23:45:56Z</time></trkpt>
<trkpt lat="50.442939" lon="4.259900"><time>2026-05-02T23:55:56Z</time></trkpt>
<trkpt lat="50.443096" lon="4.260397"><time>2026-05-03T00:05:56Z</time></trkpt>
<trkpt lat="50.443744" lon="4.260763"><time>2026-05-03T00:15:56Z</time></trkpt>
<trkpt lat="50.444149" lon="4.261494"><time>2026-05-03T00:25:56Z</time></trkpt>
<trkpt lat="50.444508" lon="4.261465"><time>2026-05-03T00:35:56Z</time></trkpt>
</trkseg>
</trk>
<trk>
<name>hmlcr83</name>
<cmt>q</cmt>
<desc>Carnières Sentier n°83 </desc>
<link href="https://chemins.be/carnieres/sentier/83"/><trkseg>
<trkpt lat="50.443087" lon="4.260454"><time>2026-05-02T23:15:56Z</time></trkpt>
<trkpt lat="50.443817" lon="4.261917"><time>2026-05-02T23:25:56Z</time></trkpt>
<trkpt lat="50.443458" lon="4.262889"><time>2026-05-02T23:35:56Z</time></trkpt>
</trkseg>
</trk>
<trk>
<name>hmlcr84</name>
<cmt>v</cmt>
<desc>Carnières Sentier n°84 </desc>
<link href="https://chemins.be/carnieres/sentier/84"/><trkseg>
<trkpt lat="50.442594" lon="4.261427"><time>2026-05-02T23:15:56Z</time></trkpt>
<trkpt lat="50.443069" lon="4.260370"><time>2026-05-02T23:25:56Z</time></trkpt>
</trkseg>
</trk>
<trk>
<name>hmlcr85</name>
<cmt>v</cmt>
<desc>Carnières Sentier n°85 Atlas des voiries vicinales de 1841 : N° 85</desc>
<link href="https://chemins.be/carnieres/sentier/85"/><trkseg>
<trkpt lat="50.444353" lon="4.258551"><time>2026-05-02T23:15:56Z</time></trkpt>
<trkpt lat="50.444487" lon="4.258030"><time>2026-05-02T23:25:56Z</time></trkpt>
<trkpt lat="50.445214" lon="4.256916"><time>2026-05-02T23:35:56Z</time></trkpt>
<trkpt lat="50.445223" lon="4.256690"><time>2026-05-02T23:45:56Z</time></trkpt>
</trkseg>
</trk>
<trk>
<name>hmlcr86</name>
<cmt>v</cmt>
<desc>Carnières Sentier n°86 </desc>
<link href="https://chemins.be/carnieres/sentier/86"/><trkseg>
<trkpt lat="50.443579" lon="4.257624"><time>2026-05-02T23:15:56Z</time></trkpt>
<trkpt lat="50.443484" lon="4.257234"><time>2026-05-02T23:25:56Z</time></trkpt>
</trkseg></trk>
<trk>
<name>hmlcr86</name>
<cmt>q</cmt>
<desc>Carnières Sentier n°86 </desc>
<link href="https://chemins.be/carnieres/sentier/86"/><trkseg>
<trkpt lat="50.443484" lon="4.257234"><time>2026-05-02T23:25:56Z</time></trkpt>
<trkpt lat="50.443050" lon="4.256423"><time>2026-05-02T23:35:56Z</time></trkpt>
<trkpt lat="50.442867" lon="4.256006"><time>2026-05-02T23:45:56Z</time></trkpt>
<trkpt lat="50.442686" lon="4.254923"><time>2026-05-02T23:55:56Z</time></trkpt>
</trkseg>
</trk>
<trk>
<name>hmlcr87</name>
<cmt>q</cmt>
<desc>Carnières Sentier n°87 Rue du Beauregard</desc>
<link href="https://chemins.be/carnieres/sentier/87"/><trkseg>
<trkpt lat="50.441957" lon="4.256314"><time>2026-05-02T23:15:56Z</time></trkpt>
<trkpt lat="50.441106" lon="4.257537"><time>2026-05-02T23:25:56Z</time></trkpt>
<trkpt lat="50.441161" lon="4.257639"><time>2026-05-02T23:35:56Z</time></trkpt>
<trkpt lat="50.441072" lon="4.259522"><time>2026-05-02T23:45:56Z</time></trkpt>
<trkpt lat="50.440938" lon="4.259608"><time>2026-05-02T23:55:56Z</time></trkpt>
</trkseg>
</trk>
<trk>
<name>hmlcr88</name>
<cmt>v</cmt>
<desc>Carnières Sentier n°88 </desc>
<link href="https://chemins.be/carnieres/sentier/88"/><trkseg>
<trkpt lat="50.444017" lon="4.255567"><time>2026-05-02T23:15:56Z</time></trkpt>
<trkpt lat="50.445043" lon="4.256226"><time>2026-05-02T23:25:56Z</time></trkpt>
</trkseg>
</trk>
<trk>
<name>hmlcr89</name>
<cmt>q</cmt>
<desc>Carnières Sentier n°89 </desc>
<link href="https://chemins.be/carnieres/sentier/89"/><trkseg>
<trkpt lat="50.438754" lon="4.250962"><time>2026-05-02T23:15:56Z</time></trkpt>
<trkpt lat="50.439437" lon="4.250890"><time>2026-05-02T23:25:56Z</time></trkpt>
</trkseg></trk>
<trk>
<name>hmlcr89</name>
<cmt>v</cmt>
<desc>Carnières Sentier n°89 </desc>
<link href="https://chemins.be/carnieres/sentier/89"/><trkseg>
<trkpt lat="50.439437" lon="4.250890"><time>2026-05-02T23:25:56Z</time></trkpt>
<trkpt lat="50.439833" lon="4.251199"><time>2026-05-02T23:35:56Z</time></trkpt>
</trkseg></trk>
<trk>
<name>hmlcr89</name>
<cmt>q</cmt>
<desc>Carnières Sentier n°89 </desc>
<link href="https://chemins.be/carnieres/sentier/89"/><trkseg>
<trkpt lat="50.439833" lon="4.251199"><time>2026-05-02T23:35:56Z</time></trkpt>
<trkpt lat="50.440723" lon="4.251901"><time>2026-05-02T23:45:56Z</time></trkpt>
</trkseg></trk>
<trk>
<name>hmlcr89</name>
<cmt>v</cmt>
<desc>Carnières Sentier n°89 </desc>
<link href="https://chemins.be/carnieres/sentier/89"/><trkseg>
<trkpt lat="50.440723" lon="4.251901"><time>2026-05-02T23:45:56Z</time></trkpt>
<trkpt lat="50.441596" lon="4.252067"><time>2026-05-02T23:55:56Z</time></trkpt>
<trkpt lat="50.442000" lon="4.252221"><time>2026-05-03T00:05:56Z</time></trkpt>
</trkseg></trk>
<trk>
<name>hmlcr89</name>
<cmt>q</cmt>
<desc>Carnières Sentier n°89 </desc>
<link href="https://chemins.be/carnieres/sentier/89"/><trkseg>
<trkpt lat="50.442000" lon="4.252221"><time>2026-05-03T00:05:56Z</time></trkpt>
<trkpt lat="50.442324" lon="4.252488"><time>2026-05-03T00:15:56Z</time></trkpt>
<trkpt lat="50.442881" lon="4.252022"><time>2026-05-03T00:25:56Z</time></trkpt>
<trkpt lat="50.443249" lon="4.251599"><time>2026-05-03T00:35:56Z</time></trkpt>
<trkpt lat="50.443960" lon="4.251836"><time>2026-05-03T00:45:56Z</time></trkpt>
<trkpt lat="50.445065" lon="4.251636"><time>2026-05-03T00:55:56Z</time></trkpt>
<trkpt lat="50.446414" lon="4.251549"><time>2026-05-03T01:05:56Z</time></trkpt>
</trkseg>
</trk>
<trk>
<name>hmlcr90</name>
<cmt>q</cmt>
<desc>Carnières Sentier n°90 </desc>
<link href="https://chemins.be/carnieres/sentier/90"/><trkseg>
<trkpt lat="50.441570" lon="4.253320"><time>2026-05-02T23:15:56Z</time></trkpt>
<trkpt lat="50.442315" lon="4.252488"><time>2026-05-02T23:25:56Z</time></trkpt>
<trkpt lat="50.442827" lon="4.252078"><time>2026-05-02T23:35:56Z</time></trkpt>
</trkseg>
</trk>
<trk>
<name>hmlcr92</name>
<cmt>v</cmt>
<desc>Carnières Sentier n°92 all</desc>
<link href="https://chemins.be/carnieres/sentier/92"/><trkseg>
<trkpt lat="50.443252" lon="4.253809"><time>2026-05-02T23:15:56Z</time></trkpt>
<trkpt lat="50.443242" lon="4.252795"><time>2026-05-02T23:25:56Z</time></trkpt>
<trkpt lat="50.443349" lon="4.252105"><time>2026-05-02T23:35:56Z</time></trkpt>
</trkseg>
</trk>
<trk>
<name>hmlcr93</name>
<cmt>s</cmt>
<desc>Carnières Sentier n°93 </desc>
<link href="https://chemins.be/carnieres/sentier/93"/><trkseg>
<trkpt lat="50.439686" lon="4.257098"><time>2026-05-02T23:15:56Z</time></trkpt>
<trkpt lat="50.440602" lon="4.255983"><time>2026-05-02T23:25:56Z</time></trkpt>
<trkpt lat="50.440961" lon="4.256039"><time>2026-05-02T23:35:56Z</time></trkpt>
</trkseg>
</trk>
<trk>
<name>hmlcr94</name>
<cmt>q</cmt>
<desc>Carnières Sentier n°94 </desc>
<link href="https://chemins.be/carnieres/sentier/94"/><trkseg>
<trkpt lat="50.433463" lon="4.256169"><time>2026-05-02T23:15:56Z</time></trkpt>
<trkpt lat="50.434137" lon="4.255619"><time>2026-05-02T23:25:56Z</time></trkpt>
<trkpt lat="50.435747" lon="4.255770"><time>2026-05-02T23:35:56Z</time></trkpt>
<trkpt lat="50.436691" lon="4.255824"><time>2026-05-02T23:45:56Z</time></trkpt>
<trkpt lat="50.437814" lon="4.255554"><time>2026-05-02T23:55:56Z</time></trkpt>
</trkseg></trk>
<trk>
<name>hmlcr94</name>
<cmt>s</cmt>
<desc>Carnières Sentier n°94 </desc>
<link href="https://chemins.be/carnieres/sentier/94"/><trkseg>
<trkpt lat="50.437814" lon="4.255554"><time>2026-05-02T23:55:56Z</time></trkpt>
<trkpt lat="50.439819" lon="4.255732"><time>2026-05-03T00:05:56Z</time></trkpt>
<trkpt lat="50.440807" lon="4.254983"><time>2026-05-03T00:15:56Z</time></trkpt>
</trkseg>
</trk>
<trk>
<name>hmlcr95</name>
<cmt>q</cmt>
<desc>Carnières Sentier n°95 Cité Bougard</desc>
<link href="https://chemins.be/carnieres/sentier/95"/><trkseg>
<trkpt lat="50.432669" lon="4.252525"><time>2026-05-02T23:15:56Z</time></trkpt>
<trkpt lat="50.433900" lon="4.252607"><time>2026-05-02T23:25:56Z</time></trkpt>
<trkpt lat="50.435663" lon="4.253039"><time>2026-05-02T23:35:56Z</time></trkpt>
</trkseg></trk>
<trk>
<name>hmlcr95</name>
<cmt>r</cmt>
<desc>Carnières Sentier n°95 Cité Bougard</desc>
<link href="https://chemins.be/carnieres/sentier/95"/><trkseg>
<trkpt lat="50.435663" lon="4.253039"><time>2026-05-02T23:35:56Z</time></trkpt>
<trkpt lat="50.437254" lon="4.253120"><time>2026-05-02T23:45:56Z</time></trkpt>
</trkseg></trk>
<trk>
<name>hmlcr95</name>
<cmt>v</cmt>
<desc>Carnières Sentier n°95 Cité Bougard</desc>
<link href="https://chemins.be/carnieres/sentier/95"/><trkseg>
<trkpt lat="50.437254" lon="4.253120"><time>2026-05-02T23:45:56Z</time></trkpt>
<trkpt lat="50.437911" lon="4.253301"><time>2026-05-02T23:55:56Z</time></trkpt>
</trkseg>
</trk>
<trk>
<name>hmlcr96</name>
<cmt>q</cmt>
<desc>Carnières Sentier n°96 Rue d'Anderlues</desc>
<link href="https://chemins.be/carnieres/sentier/96"/><trkseg>
<trkpt lat="50.435615" lon="4.259072"><time>2026-05-02T23:15:56Z</time></trkpt>
<trkpt lat="50.435817" lon="4.259147"><time>2026-05-02T23:25:56Z</time></trkpt>
<trkpt lat="50.437245" lon="4.258578"><time>2026-05-02T23:35:56Z</time></trkpt>
<trkpt lat="50.438075" lon="4.257859"><time>2026-05-02T23:45:56Z</time></trkpt>
<trkpt lat="50.439176" lon="4.257602"><time>2026-05-02T23:55:56Z</time></trkpt>
</trkseg>
</trk>
<trk>
<name>hmlcr97</name>
<cmt>v</cmt>
<desc>Carnières Sentier n°97 </desc>
<link href="https://chemins.be/carnieres/sentier/97"/><trkseg>
<trkpt lat="50.439156" lon="4.257535"><time>2026-05-02T23:15:56Z</time></trkpt>
<trkpt lat="50.439528" lon="4.258410"><time>2026-05-02T23:25:56Z</time></trkpt>
<trkpt lat="50.439606" lon="4.258563"><time>2026-05-02T23:35:56Z</time></trkpt>
<trkpt lat="50.440209" lon="4.259687"><time>2026-05-02T23:45:56Z</time></trkpt>
</trkseg></trk>
<trk>
<name>hmlcr97</name>
<cmt>b</cmt>
<desc>Carnières Sentier n°97 </desc>
<link href="https://chemins.be/carnieres/sentier/97"/><trkseg>
<trkpt lat="50.440209" lon="4.259687"><time>2026-05-02T23:45:56Z</time></trkpt>
<trkpt lat="50.440624" lon="4.260615"><time>2026-05-02T23:55:56Z</time></trkpt>
</trkseg>
</trk>
<trk>
<name>hmlcr98</name>
<cmt>v</cmt>
<desc>Carnières Sentier n°98 </desc>
<link href="https://chemins.be/carnieres/sentier/98"/><trkseg>
<trkpt lat="50.440875" lon="4.259587"><time>2026-05-02T23:15:56Z</time></trkpt>
<trkpt lat="50.440209" lon="4.259673"><time>2026-05-02T23:25:56Z</time></trkpt>
</trkseg>
</trk>
<trk>
<name>hmlcri1</name>
<cmt>v</cmt>
<desc>Carnières Chemin n°i1 </desc>
<link href="https://chemins.be/carnieres/chemin/i1"/><trkseg>
<trkpt lat="50.454942" lon="4.256555"><time>2026-05-02T23:15:56Z</time></trkpt>
<trkpt lat="50.454322" lon="4.257317"><time>2026-05-02T23:25:56Z</time></trkpt>
</trkseg></trk>
<trk>
<name>hmlcri1</name>
<cmt>q</cmt>
<desc>Carnières Chemin n°i1 </desc>
<link href="https://chemins.be/carnieres/chemin/i1"/><trkseg>
<trkpt lat="50.454322" lon="4.257317"><time>2026-05-02T23:25:56Z</time></trkpt>
<trkpt lat="50.454169" lon="4.257557"><time>2026-05-02T23:35:56Z</time></trkpt>
<trkpt lat="50.454287" lon="4.257922"><time>2026-05-02T23:45:56Z</time></trkpt>
<trkpt lat="50.453685" lon="4.258924"><time>2026-05-02T23:55:56Z</time></trkpt>
<trkpt lat="50.453775" lon="4.259233"><time>2026-05-03T00:05:56Z</time></trkpt>
<trkpt lat="50.453650" lon="4.259487"><time>2026-05-03T00:15:56Z</time></trkpt>
</trkseg>
</trk>
<trk>
<name>hmlcri10</name>
<cmt>v</cmt>
<desc>Carnières Sentier n°i10 </desc>
<link href="https://chemins.be/carnieres/sentier/i10"/><trkseg>
<trkpt lat="50.440250" lon="4.257046"><time>2026-05-02T23:15:56Z</time></trkpt>
<trkpt lat="50.440194" lon="4.257244"><time>2026-05-02T23:25:56Z</time></trkpt>
<trkpt lat="50.439606" lon="4.258552"><time>2026-05-02T23:35:56Z</time></trkpt>
</trkseg>
</trk>
<trk>
<name>hmlcri2</name>
<cmt>v</cmt>
<desc>Carnières Chemin n°i2 </desc>
<link href="https://chemins.be/carnieres/chemin/i2"/><trkseg>
<trkpt lat="50.446820" lon="4.252984"><time>2026-05-02T23:15:56Z</time></trkpt>
<trkpt lat="50.447017" lon="4.252758"><time>2026-05-02T23:25:56Z</time></trkpt>
</trkseg>
</trk>
<trk>
<name>hmlcri3</name>
<cmt>v</cmt>
<desc>Carnières Chemin n°i3 </desc>
<link href="https://chemins.be/carnieres/chemin/i3"/><trkseg>
<trkpt lat="50.430351" lon="4.237542"><time>2026-05-02T23:15:56Z</time></trkpt>
<trkpt lat="50.430910" lon="4.239088"><time>2026-05-02T23:25:56Z</time></trkpt>
<trkpt lat="50.431279" lon="4.238862"><time>2026-05-02T23:35:56Z</time></trkpt>
</trkseg>
</trk>
<trk>
<name>hmlcri4</name>
<cmt>v</cmt>
<desc>Carnières Chemin n°i4 Rue Léon Fricoux</desc>
<link href="https://chemins.be/carnieres/chemin/i4"/><trkseg>
<trkpt lat="50.451721" lon="4.263913"><time>2026-05-02T23:15:56Z</time></trkpt>
<trkpt lat="50.451146" lon="4.264182"><time>2026-05-02T23:25:56Z</time></trkpt>
</trkseg>
</trk>
<trk>
<name>hmlcri5</name>
<cmt>v</cmt>
<desc>Carnières Chemin n°i5 </desc>
<link href="https://chemins.be/carnieres/chemin/i5"/><trkseg>
<trkpt lat="50.443085" lon="4.249065"><time>2026-05-02T23:15:56Z</time></trkpt>
<trkpt lat="50.443059" lon="4.249966"><time>2026-05-02T23:25:56Z</time></trkpt>
<trkpt lat="50.443598" lon="4.249951"><time>2026-05-02T23:35:56Z</time></trkpt>
</trkseg>
</trk>
<trk>
<name>hmlcri6</name>
<cmt>v</cmt>
<desc>Carnières Chemin n°i6 Ancienne ligne 30 / Ancienne voie du tram</desc>
<link href="https://chemins.be/carnieres/chemin/i6"/><trkseg>
<trkpt lat="50.432466" lon="4.259730"><time>2026-05-02T23:15:56Z</time></trkpt>
<trkpt lat="50.432919" lon="4.259837"><time>2026-05-02T23:25:56Z</time></trkpt>
<trkpt lat="50.433982" lon="4.260449"><time>2026-05-02T23:35:56Z</time></trkpt>
<trkpt lat="50.435812" lon="4.261458"><time>2026-05-02T23:45:56Z</time></trkpt>
<trkpt lat="50.436589" lon="4.261422"><time>2026-05-02T23:55:56Z</time></trkpt>
<trkpt lat="50.437071" lon="4.261295"><time>2026-05-03T00:05:56Z</time></trkpt>
<trkpt lat="50.438124" lon="4.260874"><time>2026-05-03T00:15:56Z</time></trkpt>
</trkseg>
</trk>
<trk>
<name>hmlcri7</name>
<cmt>v</cmt>
<desc>Carnières Sentier n°i7 </desc>
<link href="https://chemins.be/carnieres/sentier/i7"/><trkseg>
<trkpt lat="50.441101" lon="4.266055"><time>2026-05-02T23:15:56Z</time></trkpt>
<trkpt lat="50.441179" lon="4.266227"><time>2026-05-02T23:25:56Z</time></trkpt>
<trkpt lat="50.441543" lon="4.266434"><time>2026-05-02T23:35:56Z</time></trkpt>
<trkpt lat="50.441639" lon="4.267035"><time>2026-05-02T23:45:56Z</time></trkpt>
</trkseg>
</trk>
<trk>
<name>hmlcri8</name>
<cmt>v</cmt>
<desc>Carnières Chemin n°i8 Tram 30 Ancienne assiette</desc>
<link href="https://chemins.be/carnieres/chemin/i8"/><trkseg>
<trkpt lat="50.451335" lon="4.246504"><time>2026-05-02T23:15:56Z</time></trkpt>
<trkpt lat="50.450531" lon="4.247262"><time>2026-05-02T23:25:56Z</time></trkpt>
<trkpt lat="50.450482" lon="4.247377"><time>2026-05-02T23:35:56Z</time></trkpt>
</trkseg>
</trk>
<trk>
<name>hmlcri9</name>
<cmt>v</cmt>
<desc>Carnières Chemin n°i9 </desc>
<link href="https://chemins.be/carnieres/chemin/i9"/><trkseg>
<trkpt lat="50.427509" lon="4.263602"><time>2026-05-02T23:15:56Z</time></trkpt>
<trkpt lat="50.426972" lon="4.264289"><time>2026-05-02T23:25:56Z</time></trkpt>
</trkseg>
</trk>
<trk>
<name>hmlcrL251</name>
<cmt>v</cmt>
<desc>Carnières Chemin n°L251 Ancienne ligne 251 / Ancienne voie du tram / Ancienne ligne 30</desc>
<link href="https://chemins.be/carnieres/chemin/L251"/><trkseg>
<trkpt lat="50.427008" lon="4.264660"><time>2026-05-02T23:15:56Z</time></trkpt>
<trkpt lat="50.427550" lon="4.263580"><time>2026-05-02T23:25:56Z</time></trkpt>
</trkseg></trk>
<trk>
<name>hmlcrL251</name>
<cmt>q</cmt>
<desc>Carnières Chemin n°L251 Ancienne ligne 251 / Ancienne voie du tram / Ancienne ligne 30</desc>
<link href="https://chemins.be/carnieres/chemin/L251"/><trkseg>
<trkpt lat="50.427550" lon="4.263580"><time>2026-05-02T23:25:56Z</time></trkpt>
<trkpt lat="50.428902" lon="4.262133"><time>2026-05-02T23:35:56Z</time></trkpt>
<trkpt lat="50.430079" lon="4.261877"><time>2026-05-02T23:45:56Z</time></trkpt>
<trkpt lat="50.433195" lon="4.263052"><time>2026-05-02T23:55:56Z</time></trkpt>
</trkseg></trk>
<trk>
<name>hmlcrL251</name>
<cmt>v</cmt>
<desc>Carnières Chemin n°L251 Ancienne ligne 251 / Ancienne voie du tram / Ancienne ligne 30</desc>
<link href="https://chemins.be/carnieres/chemin/L251"/><trkseg>
<trkpt lat="50.433195" lon="4.263052"><time>2026-05-02T23:55:56Z</time></trkpt>
<trkpt lat="50.435179" lon="4.263195"><time>2026-05-03T00:05:56Z</time></trkpt>
<trkpt lat="50.436262" lon="4.262845"><time>2026-05-03T00:15:56Z</time></trkpt>
<trkpt lat="50.437376" lon="4.261939"><time>2026-05-03T00:25:56Z</time></trkpt>
<trkpt lat="50.438167" lon="4.260961"><time>2026-05-03T00:35:56Z</time></trkpt>
<trkpt lat="50.438833" lon="4.260001"><time>2026-05-03T00:45:56Z</time></trkpt>
<trkpt lat="50.439583" lon="4.258502"><time>2026-05-03T00:55:56Z</time></trkpt>
<trkpt lat="50.440243" lon="4.257040"><time>2026-05-03T01:05:56Z</time></trkpt>
<trkpt lat="50.441203" lon="4.254912"><time>2026-05-03T01:15:56Z</time></trkpt>
</trkseg></trk>
<trk>
<name>hmlcrL251</name>
<cmt>q</cmt>
<desc>Carnières Chemin n°L251 Ancienne ligne 251 / Ancienne voie du tram / Ancienne ligne 30</desc>
<link href="https://chemins.be/carnieres/chemin/L251"/><trkseg>
<trkpt lat="50.441203" lon="4.254912"><time>2026-05-03T01:15:56Z</time></trkpt>
<trkpt lat="50.441777" lon="4.253249"><time>2026-05-03T01:25:56Z</time></trkpt>
<trkpt lat="50.442296" lon="4.250925"><time>2026-05-03T01:35:56Z</time></trkpt>
<trkpt lat="50.442582" lon="4.249756"><time>2026-05-03T01:45:56Z</time></trkpt>
<trkpt lat="50.442815" lon="4.248319"><time>2026-05-03T01:55:56Z</time></trkpt>
</trkseg></trk>
<trk>
<name>hmlcrL251</name>
<cmt>r</cmt>
<desc>Carnières Chemin n°L251 Ancienne ligne 251 / Ancienne voie du tram / Ancienne ligne 30</desc>
<link href="https://chemins.be/carnieres/chemin/L251"/><trkseg>
<trkpt lat="50.442815" lon="4.248319"><time>2026-05-03T01:55:56Z</time></trkpt>
<trkpt lat="50.443297" lon="4.245714"><time>2026-05-03T02:05:56Z</time></trkpt>
</trkseg></trk>
<trk>
<name>hmlcrL251</name>
<cmt>q</cmt>
<desc>Carnières Chemin n°L251 Ancienne ligne 251 / Ancienne voie du tram / Ancienne ligne 30</desc>
<link href="https://chemins.be/carnieres/chemin/L251"/><trkseg>
<trkpt lat="50.443297" lon="4.245714"><time>2026-05-03T02:05:56Z</time></trkpt>
<trkpt lat="50.443600" lon="4.243165"><time>2026-05-03T02:15:56Z</time></trkpt>
<trkpt lat="50.444003" lon="4.241122"><time>2026-05-03T02:25:56Z</time></trkpt>
<trkpt lat="50.444127" lon="4.239911"><time>2026-05-03T02:35:56Z</time></trkpt>
<trkpt lat="50.444017" lon="4.238095"><time>2026-05-03T02:45:56Z</time></trkpt>
<trkpt lat="50.443440" lon="4.236196"><time>2026-05-03T02:55:56Z</time></trkpt>
<trkpt lat="50.442773" lon="4.234776"><time>2026-05-03T03:05:56Z</time></trkpt>
</trkseg>
</trk>
<trk>
<name>hmlcrp1</name>
<cmt>r</cmt>
<desc>Carnières Sentier particulier n°p1 Rue Pierre Brachet</desc>
<link href="https://chemins.be/carnieres/sentier/p1"/><trkseg>
<trkpt lat="50.449795" lon="4.265431"><time>2026-05-02T23:15:56Z</time></trkpt>
<trkpt lat="50.449241" lon="4.264176"><time>2026-05-02T23:25:56Z</time></trkpt>
</trkseg>
</trk>
</gpx>